Data for 06/06/2007

Time Sea-Level Adjusted Pressure Absolute Pressure Temperature Relative Humidity Dew Point Precipitation   
(mb) (inHg) (mb) (inHg) (C) (F) (%) (C) (F) (mm) (in)
00:01 1006 29.71 835 24.66 10.5 51 97 10.1 50.1 0
00:02 1005 29.68 835 24.66 10.6 51.1 97 10.1 50.2 0
00:03 1005 29.68 835 24.66 10.6 51.2 97 10.2 50.4 0
00:04 1005 29.68 835 24.66 10.7 51.2 97 10.2 50.4 0
00:05 1005 29.68 835 24.66 10.6 51.2 97 10.2 50.4 0
00:06 1005 29.68 835 24.66 10.7 51.2 97 10.2 50.4 0
00:07 1005 29.68 835 24.66 10.7 51.3 97 10.3 50.5 0
00:08 1005 29.68 835 24.66 10.7 51.3 97 10.3 50.5 0
00:09 1005 29.68 835 24.66 10.7 51.3 97 10.3 50.5 0
00:10 1005 29.68 835 24.66 10.7 51.3 97 10.3 50.5 0
00:11 1005 29.68 835 24.66 10.8 51.4 97 10.3 50.6 0
00:12 1005 29.68 835 24.66 10.8 51.4 97 10.3 50.6 0
00:13 1005 29.68 835 24.66 10.8 51.4 97 10.3 50.5 0
00:14 1005 29.68 835 24.66 10.8 51.4 97 10.3 50.6 0
00:15 1005 29.68 835 24.66 10.8 51.4 97 10.3 50.6 0
00:16 1005 29.68 835 24.66 10.8 51.4 97 10.3 50.5 0
00:17 1005 29.68 835 24.66 10.8 51.4 97 10.3 50.5 0
00:18 1005 29.68 835 24.66 10.8 51.4 97 10.3 50.5 0
00:19 1005 29.68 834 24.63 10.8 51.4 97 10.3 50.5 0
00:20 1005 29.68 834 24.63 10.8 51.4 97 10.3 50.5 0
00:21 1005 29.68 834 24.63 10.8 51.4 97 10.3 50.6 0
00:22 1005 29.68 834 24.63 10.8 51.4 97 10.3 50.6 0
00:23 1005 29.68 834 24.63 10.8 51.4 97 10.3 50.5 0
00:24 1005 29.68 834 24.63 10.8 51.4 97 10.3 50.5 0
00:25 1005 29.68 834 24.63 10.8 51.4 97 10.3 50.5 0
00:26 1005 29.68 834 24.63 10.8 51.4 97 10.3 50.5 0
00:27 1005 29.68 834 24.63 10.8 51.4 97 10.3 50.5 0
00:28 1005 29.68 834 24.63 10.8 51.4 97 10.3 50.5 0
00:29 1005 29.68 834 24.63 10.8 51.4 97 10.3 50.5 0
00:30 1005 29.68 834 24.63 10.8 51.4 97 10.3 50.5 0
00:31 1005 29.68 834 24.63 10.8 51.4 97 10.3 50.5 0
00:32 1005 29.68 834 24.63 10.7 51.3 97 10.2 50.4 0
00:33 1005 29.68 834 24.63 10.8 51.4 97 10.3 50.5 0
00:34 1005 29.68 834 24.63 10.8 51.4 97 10.3 50.5 0
00:35 1005 29.68 834 24.63 10.8 51.4 97 10.3 50.5 0
00:36 1005 29.68 834 24.63 10.8 51.4 97 10.3 50.5 0
00:37 1005 29.68 834 24.63 10.8 51.4 97 10.3 50.5 0
00:38 1005 29.68 834 24.63 10.8 51.4 97 10.3 50.6 0
00:39 1005 29.68 834 24.63 10.8 51.4 97 10.3 50.5 0
00:40 1005 29.68 834 24.63 10.8 51.5 97 10.3 50.6 0
00:41 1005 29.68 834 24.63 10.8 51.5 97 10.3 50.6 0
00:42 1005 29.68 834 24.63 10.9 51.5 97 10.3 50.6 0
00:43 1005 29.68 834 24.63 10.8 51.5 96 10.3 50.5 0
00:44 1005 29.68 834 24.63 10.8 51.4 96 10.2 50.4 0
00:45 1005 29.68 834 24.63 10.8 51.4 96 10.2 50.4 0
00:46 1005 29.68 834 24.63 10.8 51.4 97 10.3 50.5 0
00:47 1005 29.68 834 24.63 10.8 51.4 97 10.3 50.5 0
00:48 1005 29.68 834 24.63 10.8 51.5 97 10.3 50.6 0
00:49 1005 29.68 834 24.63 10.9 51.5 96 10.3 50.5 0
00:50 1005 29.68 834 24.63 10.9 51.5 96 10.3 50.5 0
00:51 1005 29.68 834 24.63 10.9 51.6 96 10.3 50.5 0
00:52 1005 29.68 834 24.63 10.9 51.5 96 10.3 50.5 0
00:53 1005 29.68 834 24.63 10.9 51.6 96 10.3 50.6 0
00:54 1005 29.68 834 24.63 10.9 51.7 96 10.3 50.6 0
00:55 1005 29.68 834 24.63 10.9 51.6 96 10.3 50.5 0
00:56 1005 29.68 834 24.63 10.9 51.7 96 10.3 50.6 0
00:57 1005 29.68 834 24.63 10.9 51.7 96 10.3 50.6 0
00:58 1005 29.68 834 24.63 10.9 51.7 96 10.3 50.6 0
00:59 1005 29.68 834 24.63 10.9 51.6 96 10.3 50.5 0
01:00 1005 29.68 834 24.63 10.9 51.6 96 10.3 50.5 0
01:01 1005 29.68 834 24.63 10.9 51.7 96 10.3 50.5 0
01:02 1005 29.68 834 24.63 11 51.7 96 10.3 50.6 0
01:03 1005 29.68 834 24.63 10.9 51.7 96 10.3 50.5 0
01:04 1005 29.68 834 24.63 11 51.7 96 10.3 50.5 0
01:05 1005 29.68 834 24.63 10.9 51.7 95 10.2 50.3 0
01:06 1005 29.68 834 24.63 11 51.7 95 10.2 50.4 0
01:07 1005 29.68 834 24.63 11 51.7 95 10.2 50.3 0
01:08 1005 29.68 834 24.63 11 51.8 94 10.1 50.2 0
01:09 1005 29.68 834 24.63 11 51.8 92 9.8 49.7 0
01:10 1005 29.68 834 24.63 11.1 52 93 10.1 50.1 0
01:11 1005 29.68 834 24.63 11.1 52.1 93 10 50 0
01:12 1005 29.68 834 24.63 11.1 52 92 9.9 49.8 0
01:13 1005 29.68 834 24.63 11.1 52 91 9.7 49.5 0
01:14 1005 29.68 834 24.63 11.1 52 91 9.7 49.5 0
01:15 1005 29.68 834 24.63 11.2 52.1 91 9.7 49.5 0
01:16 1005 29.68 834 24.63 11.2 52.2 91 9.7 49.5 0
01:17 1005 29.68 834 24.63 11.2 52.2 91 9.7 49.5 0
01:18 1005 29.68 834 24.63 11.2 52.1 90 9.7 49.4 0
01:19 1005 29.68 834 24.63 11.2 52.2 90 9.7 49.4 0
01:20 1005 29.68 834 24.63 11.2 52.2 90 9.7 49.4 0
01:21 1005 29.68 834 24.63 11.2 52.2 90 9.7 49.4 0
01:22 1005 29.68 834 24.63 11.3 52.3 91 9.8 49.6 0
01:23 1005 29.68 834 24.63 11.3 52.3 91 9.9 49.8 0
01:24 1005 29.68 834 24.63 11.2 52.2 91 9.9 49.8 0
01:25 1005 29.68 834 24.63 11.2 52.1 91 9.9 49.7 0
01:26 1005 29.68 834 24.63 11.2 52.1 92 9.9 49.8 0
01:27 1005 29.68 834 24.63 11.1 52 92 9.8 49.7 0
01:28 1005 29.68 834 24.63 11.1 51.9 91 9.7 49.5 0
01:29 1005 29.68 834 24.63 11.1 51.9 90 9.5 49.1 0
01:30 1005 29.68 834 24.63 11.1 51.9 90 9.5 49.2 0
01:31 1005 29.68 834 24.63 11.1 52 90 9.6 49.3 0
01:32 1005 29.68 834 24.63 11.1 52.1 91 9.7 49.5 0
01:33 1005 29.68 834 24.63 11.1 52 91 9.7 49.4 0
01:34 1005 29.68 834 24.63 11.1 51.9 91 9.7 49.4 0
01:35 1005 29.68 834 24.63 11.1 51.9 91 9.7 49.4 0
01:36 1005 29.68 834 24.63 11 51.7 91 9.6 49.3 0
01:37 1005 29.68 834 24.63 10.9 51.7 92 9.6 49.3 0
01:38 1005 29.68 834 24.63 10.9 51.6 91 9.5 49.1 0
01:39 1005 29.68 834 24.63 10.9 51.7 91 9.5 49.2 0
01:40 1005 29.68 834 24.63 10.9 51.6 92 9.6 49.2 0
01:41 1005 29.68 834 24.63 10.9 51.6 92 9.6 49.4 0
01:42 1005 29.68 834 24.63 10.9 51.5 92 9.7 49.4 0
01:43 1005 29.68 834 24.63 10.8 51.5 93 9.7 49.4 0
01:44 1005 29.68 834 24.63 10.8 51.4 92 9.6 49.3 0
01:45 1005 29.68 834 24.63 10.7 51.3 92 9.5 49.2 0
01:46 1005 29.68 834 24.63 10.8 51.4 92 9.6 49.2 0
01:47 1005 29.68 834 24.63 10.8 51.4 93 9.6 49.3 0
01:48 1005 29.68 834 24.63 10.7 51.3 93 9.6 49.3 0
01:49 1005 29.68 834 24.63 10.7 51.3 92 9.5 49.1 0
01:50 1005 29.68 834 24.63 10.8 51.4 93 9.7 49.4 0
01:51 1005 29.68 834 24.63 10.8 51.4 93 9.7 49.4 0
01:52 1005 29.68 834 24.63 10.8 51.4 93 9.7 49.5 0
01:53 1005 29.68 834 24.63 10.8 51.4 93 9.6 49.3 0
01:54 1004 29.65 834 24.63 10.8 51.4 93 9.7 49.4 0
01:55 1004 29.65 834 24.63 10.8 51.4 93 9.7 49.5 0
01:56 1004 29.65 834 24.63 10.8 51.5 93 9.8 49.6 0
01:57 1004 29.65 834 24.63 10.9 51.5 93 9.8 49.7 0
01:58 1004 29.65 834 24.63 10.9 51.5 94 9.9 49.8 0
01:59 1004 29.65 834 24.63 10.8 51.5 94 9.9 49.8 0
02:00 1004 29.65 834 24.63 10.8 51.5 94 9.8 49.7 0
02:01 1004 29.65 834 24.63 10.8 51.5 93 9.7 49.5 0
02:02 1004 29.65 834 24.63 10.8 51.4 93 9.7 49.4 0
02:03 1004 29.65 833 24.6 10.8 51.4 93 9.6 49.3 0
02:04 1004 29.65 833 24.6 10.8 51.4 93 9.6 49.3 0
02:05 1004 29.65 833 24.6 10.7 51.3 93 9.6 49.3 0
02:06 1004 29.65 833 24.6 10.7 51.3 92 9.5 49.1 0
02:07 1004 29.65 833 24.6 10.7 51.3 91 9.4 48.9 0
02:08 1004 29.65 833 24.6 10.7 51.2 91 9.2 48.6 0
02:09 1004 29.65 833 24.6 10.7 51.2 91 9.2 48.6 0
02:10 1004 29.65 833 24.6 10.6 51.1 91 9.1 48.4 0
02:11 1004 29.65 833 24.6 10.6 51.1 91 9.2 48.6 0
02:12 1004 29.65 833 24.6 10.5 51 91 9.1 48.4 0
02:13 1004 29.65 833 24.6 10.5 50.9 91 9.1 48.4 0
02:14 1004 29.65 833 24.6 10.4 50.8 92 9.2 48.5 0
02:15 1004 29.65 833 24.6 10.4 50.8 92 9.1 48.4 0
02:16 1004 29.65 833 24.6 10.4 50.6 90 8.8 47.9 0
02:17 1004 29.65 833 24.6 10.3 50.6 91 8.9 48 0
02:18 1004 29.65 833 24.6 10.3 50.6 91 8.9 48 0
02:19 1004 29.65 833 24.6 10.3 50.5 91 8.9 47.9 0
02:20 1004 29.65 833 24.6 10.3 50.5 91 8.9 48 0
02:21 1004 29.65 833 24.6 10.2 50.4 91 8.9 48 0
02:22 1004 29.65 833 24.6 10.2 50.3 91 8.8 47.8 0
02:23 1004 29.65 833 24.6 10.2 50.3 91 8.8 47.9 0
02:24 1004 29.65 833 24.6 10.2 50.3 90 8.7 47.6 0
02:25 1004 29.65 833 24.6 10.2 50.3 91 8.7 47.7 0
02:26 1004 29.65 833 24.6 10.2 50.3 91 8.7 47.7 0
02:27 1004 29.65 833 24.6 10.1 50.2 91 8.7 47.6 0
02:28 1004 29.65 833 24.6 10.1 50.2 91 8.7 47.6 0
02:29 1004 29.65 833 24.6 10.1 50.1 91 8.6 47.6 0
02:30 1004 29.65 833 24.6 10 50 91 8.6 47.5 0
02:31 1004 29.65 833 24.6 10 50 91 8.6 47.5 0
02:32 1004 29.65 833 24.6 10 49.9 91 8.6 47.5 0
02:33 1004 29.65 833 24.6 9.9 49.9 91 8.6 47.4 0
02:34 1004 29.65 833 24.6 9.9 49.7 92 8.5 47.4 0
02:35 1004 29.65 833 24.6 9.9 49.7 92 8.6 47.4 0
02:36 1004 29.65 833 24.6 9.8 49.7 92 8.5 47.4 0
02:37 1004 29.65 833 24.6 9.8 49.6 91 8.4 47.2 0
02:38 1004 29.65 833 24.6 9.8 49.6 91 8.4 47.2 0
02:39 1004 29.65 833 24.6 9.8 49.6 92 8.5 47.2 0
02:40 1004 29.65 833 24.6 9.8 49.6 91 8.4 47.2 0
02:41 1004 29.65 833 24.6 9.7 49.5 92 8.4 47.1 0
02:42 1004 29.65 833 24.6 9.7 49.5 92 8.4 47.2 0
02:43 1004 29.65 833 24.6 9.7 49.5 92 8.4 47.2 0
02:44 1004 29.65 833 24.6 9.7 49.4 92 8.4 47.2 0
02:45 1004 29.65 833 24.6 9.6 49.4 92 8.4 47 0
02:46 1004 29.65 833 24.6 9.7 49.4 92 8.4 47.1 0
02:47 1004 29.65 833 24.6 9.6 49.4 92 8.3 47 0
02:48 1004 29.65 833 24.6 9.7 49.4 92 8.4 47.2 0
02:49 1004 29.65 833 24.6 9.6 49.3 92 8.4 47.1 0
02:50 1004 29.65 833 24.6 9.6 49.3 92 8.4 47.1 0
02:51 1004 29.65 833 24.6 9.6 49.3 92 8.4 47.2 0
02:52 1004 29.65 833 24.6 9.6 49.2 92 8.4 47.1 0
02:53 1004 29.65 833 24.6 9.6 49.2 92 8.4 47.1 0
02:54 1004 29.65 833 24.6 9.6 49.2 93 8.4 47.2 0
02:55 1004 29.65 833 24.6 9.6 49.2 93 8.5 47.2 0
02:56 1004 29.65 833 24.6 9.5 49.1 93 8.4 47.2 0
02:57 1004 29.65 833 24.6 9.5 49.2 93 8.5 47.3 0
02:58 1004 29.65 833 24.6 9.5 49.1 93 8.4 47.2 0
02:59 1004 29.65 833 24.6 9.5 49 93 8.4 47.1 0
03:00 1004 29.65 833 24.6 9.5 49.1 93 8.4 47.2 0
03:01 1004 29.65 833 24.6 9.5 49.1 93 8.4 47.2 0
03:02 1004 29.65 833 24.6 9.5 49.1 93 8.4 47.2 0
03:03 1004 29.65 833 24.6 9.5 49.1 93 8.4 47.2 0
03:04 1004 29.65 833 24.6 9.5 49 94 8.5 47.3 0
03:05 1004 29.65 833 24.6 9.5 49 94 8.5 47.3 0
03:06 1004 29.65 833 24.6 9.4 49 94 8.5 47.2 0
03:07 1004 29.65 833 24.6 9.4 49 94 8.5 47.3 0
03:08 1004 29.65 833 24.6 9.4 49 94 8.5 47.2 0
03:09 1004 29.65 833 24.6 9.4 49 94 8.5 47.3 0
03:10 1004 29.65 833 24.6 9.5 49 94 8.5 47.3 0
03:11 1004 29.65 833 24.6 9.4 49 94 8.5 47.2 0
03:12 1004 29.65 833 24.6 9.4 49 94 8.4 47.2 0
03:13 1004 29.65 833 24.6 9.4 49 93 8.4 47.2 0
03:14 1004 29.65 833 24.6 9.5 49 93 8.4 47.1 0
03:15 1004 29.65 833 24.6 9.5 49 93 8.4 47.1 0
03:16 1004 29.65 833 24.6 9.5 49.1 93 8.4 47.2 0
03:17 1004 29.65 833 24.6 9.5 49.1 93 8.4 47.2 0
03:18 1004 29.65 833 24.6 9.5 49.1 93 8.4 47.1 0
03:19 1004 29.65 833 24.6 9.5 49 93 8.3 47 0
03:20 1004 29.65 833 24.6 9.5 49 93 8.4 47 0
03:21 1004 29.65 833 24.6 9.5 49 93 8.3 47 0
03:22 1004 29.65 833 24.6 9.5 49 93 8.3 47 0
03:23 1004 29.65 833 24.6 9.5 49 93 8.3 47 0
03:24 1004 29.65 833 24.6 9.5 49 93 8.4 47.1 0
03:25 1004 29.65 833 24.6 9.4 48.9 93 8.3 47 0
03:26 1004 29.65 833 24.6 9.4 49 93 8.3 47 0
03:27 1004 29.65 833 24.6 9.4 48.9 93 8.3 46.9 0
03:28 1004 29.65 833 24.6 9.4 49 93 8.3 46.9 0
03:29 1004 29.65 833 24.6 9.4 49 93 8.3 46.9 0
03:30 1004 29.65 833 24.6 9.4 48.9 93 8.3 46.9 0
03:31 1004 29.65 833 24.6 9.4 48.9 93 8.3 46.9 0
03:32 1004 29.65 833 24.6 9.4 48.9 93 8.3 46.9 0
03:33 1004 29.65 833 24.6 9.4 48.9 93 8.3 46.9 0
03:34 1004 29.65 833 24.6 9.4 48.9 93 8.3 46.9 0
03:35 1004 29.65 833 24.6 9.4 48.9 93 8.3 46.9 0
03:36 1004 29.65 833 24.6 9.4 48.9 92 8.2 46.8 0
03:37 1004 29.65 833 24.6 9.4 48.9 92 8.2 46.8 0
03:38 1004 29.65 833 24.6 9.4 49 92 8.3 46.9 0
03:39 1004 29.65 833 24.6 9.4 49 93 8.3 46.9 0
03:40 1004 29.65 833 24.6 9.4 49 93 8.3 47 0
03:41 1004 29.65 833 24.6 9.4 48.9 93 8.3 46.9 0
03:42 1004 29.65 833 24.6 9.4 49 93 8.3 47 0
03:43 1003 29.62 833 24.6 9.4 49 93 8.3 47 0
03:44 1003 29.62 833 24.6 9.4 48.9 93 8.2 46.8 0
03:45 1003 29.62 832 24.57 9.4 48.9 93 8.3 46.9 0
03:46 1003 29.62 832 24.57 9.4 48.9 93 8.3 46.9 0
03:47 1003 29.62 832 24.57 9.4 48.9 93 8.3 46.9 0
03:48 1003 29.62 832 24.57 9.4 48.8 93 8.3 47 0
03:49 1003 29.62 832 24.57 9.3 48.8 93 8.3 47 0
03:50 1003 29.62 832 24.57 9.3 48.8 93 8.3 47 0
03:51 1003 29.62 832 24.57 9.4 48.8 94 8.4 47.1 0
03:52 1003 29.62 832 24.57 9.3 48.7 94 8.3 47 0
03:53 1003 29.62 832 24.57 9.3 48.8 94 8.4 47.1 0
03:54 1003 29.62 832 24.57 9.3 48.8 94 8.4 47.1 0
03:55 1003 29.62 832 24.57 9.3 48.7 94 8.3 47 0
03:56 1003 29.62 832 24.57 9.3 48.7 94 8.3 47 0
03:57 1003 29.62 832 24.57 9.3 48.8 94 8.4 47.1 0
03:58 1003 29.62 832 24.57 9.3 48.7 94 8.4 47.1 0
03:59 1003 29.62 832 24.57 9.3 48.7 94 8.4 47 0
04:00 1003 29.62 832 24.57 9.3 48.7 94 8.4 47.1 0
04:01 1003 29.62 832 24.57 9.3 48.7 94 8.4 47.1 0
04:02 1003 29.62 832 24.57 9.3 48.7 94 8.4 47.1 0
04:03 1003 29.62 832 24.57 9.3 48.7 94 8.4 47.2 0
04:04 1003 29.62 832 24.57 9.2 48.6 94 8.4 47.1 0
04:05 1003 29.62 832 24.57 9.3 48.7 94 8.4 47.1 0
04:06 1003 29.62 832 24.57 9.2 48.6 94 8.3 46.9 0
04:07 1003 29.62 832 24.57 9.3 48.7 94 8.3 47 0
04:08 1003 29.62 832 24.57 9.2 48.6 94 8.3 47 0
04:09 1003 29.62 832 24.57 9.3 48.7 94 8.3 47 0
04:10 1003 29.62 832 24.57 9.3 48.7 94 8.4 47 0
04:11 1003 29.62 832 24.57 9.3 48.7 94 8.3 47 0
04:12 1003 29.62 832 24.57 9.3 48.7 94 8.4 47.1 0
04:13 1003 29.62 832 24.57 9.3 48.7 94 8.4 47.1 0
04:14 1003 29.62 832 24.57 9.2 48.6 94 8.4 47 0
04:15 1003 29.62 832 24.57 9.2 48.6 95 8.4 47.1 0
04:16 1003 29.62 832 24.57 9.2 48.6 95 8.4 47.1 0
04:17 1003 29.62 832 24.57 9.2 48.6 95 8.4 47.1 0
04:18 1003 29.62 832 24.57 9.2 48.6 94 8.4 47 0
04:19 1003 29.62 832 24.57 9.2 48.6 95 8.4 47.1 0
04:20 1003 29.62 832 24.57 9.2 48.6 94 8.3 46.9 0
04:21 1003 29.62 832 24.57 9.2 48.5 94 8.3 46.9 0
04:22 1003 29.62 832 24.57 9.2 48.6 94 8.3 46.9 0
04:23 1003 29.62 832 24.57 9.2 48.6 94 8.3 47 0
04:24 1003 29.62 832 24.57 9.2 48.6 94 8.2 46.8 0
04:25 1003 29.62 832 24.57 9.2 48.6 94 8.3 46.9 0
04:26 1003 29.62 832 24.57 9.2 48.6 94 8.2 46.8 0
04:27 1003 29.62 832 24.57 9.2 48.6 93 8.2 46.7 0
04:28 1003 29.62 832 24.57 9.2 48.6 93 8.2 46.7 0
04:29 1003 29.62 832 24.57 9.2 48.6 94 8.2 46.8 0
04:30 1003 29.62 832 24.57 9.2 48.6 93 8.2 46.7 0
04:31 1003 29.62 832 24.57 9.2 48.6 93 8.2 46.7 0
04:32 1003 29.62 832 24.57 9.2 48.5 93 8.1 46.6 0
04:33 1003 29.62 832 24.57 9.2 48.5 93 8.1 46.6 0
04:34 1003 29.62 832 24.57 9.1 48.5 93 8.1 46.5 0
04:35 1003 29.62 832 24.57 9.1 48.5 93 8.1 46.5 0
04:36 1003 29.62 832 24.57 9.2 48.5 93 8.1 46.5 0
04:37 1003 29.62 832 24.57 9.1 48.4 93 8 46.3 0
04:38 1003 29.62 832 24.57 9.1 48.4 93 8 46.4 0
04:39 1003 29.62 832 24.57 9.1 48.4 93 8 46.4 0
04:40 1003 29.62 832 24.57 9.1 48.4 93 8 46.4 0
04:41 1003 29.62 832 24.57 9.1 48.3 93 8 46.4 0
04:42 1003 29.62 832 24.57 9.1 48.3 93 8 46.3 0
04:43 1003 29.62 832 24.57 9.1 48.3 93 8 46.4 0
04:44 1003 29.62 832 24.57 9 48.2 93 7.9 46.3 0
04:45 1003 29.62 832 24.57 9 48.2 93 8 46.4 0
04:46 1003 29.62 832 24.57 8.9 48.1 93 7.9 46.2 0
04:47 1003 29.62 832 24.57 9 48.1 94 8 46.4 0
04:48 1003 29.62 832 24.57 8.9 48 93 7.9 46.2 0
04:49 1003 29.62 832 24.57 8.9 48 93 7.8 46.1 0
04:50 1003 29.62 832 24.57 8.9 48 93 7.8 46.1 0
04:51 1003 29.62 832 24.57 8.9 47.9 93 7.8 46.1 0
04:52 1003 29.62 832 24.57 8.9 47.9 94 7.9 46.2 0
04:53 1003 29.62 832 24.57 8.8 47.9 94 7.9 46.2 0
04:54 1003 29.62 832 24.57 8.8 47.8 94 7.8 46.1 0
04:55 1003 29.62 832 24.57 8.8 47.8 94 7.8 46 0
04:56 1003 29.62 832 24.57 8.8 47.8 94 7.8 46 0
04:57 1003 29.62 832 24.57 8.7 47.7 94 7.8 46 0
04:58 1003 29.62 832 24.57 8.7 47.7 94 7.8 46 0
04:59 1003 29.62 832 24.57 8.7 47.7 94 7.8 46.1 0
05:00 1003 29.62 832 24.57 8.7 47.7 94 7.8 46 0
05:01 1003 29.62 832 24.57 8.7 47.6 94 7.8 46 0
05:02 1003 29.62 832 24.57 8.7 47.6 94 7.8 46 0
05:03 1003 29.62 832 24.57 8.6 47.5 94 7.8 46 0
05:04 1003 29.62 832 24.57 8.6 47.5 94 7.7 45.9 0
05:05 1003 29.62 832 24.57 8.6 47.4 94 7.7 45.8 0
05:06 1003 29.62 832 24.57 8.6 47.4 94 7.7 45.9 0
05:07 1003 29.62 832 24.57 8.5 47.4 94 7.7 45.9 0
05:08 1003 29.62 832 24.57 8.5 47.3 95 7.7 45.8 0
05:09 1003 29.62 832 24.57 8.5 47.3 95 7.7 45.9 0
05:10 1003 29.62 832 24.57 8.5 47.3 95 7.7 45.8 0
05:11 1003 29.62 832 24.57 8.5 47.2 95 7.7 45.8 0
05:12 1003 29.62 832 24.57 8.4 47.2 94 7.6 45.7 0
05:13 1003 29.62 832 24.57 8.5 47.2 95 7.7 45.8 0
05:14 1003 29.62 832 24.57 8.4 47.2 95 7.6 45.7 0
05:15 1003 29.62 832 24.57 8.4 47.2 95 7.6 45.7 0
05:16 1003 29.62 832 24.57 8.4 47.2 95 7.6 45.8 0
05:17 1003 29.62 832 24.57 8.5 47.2 95 7.7 45.8 0
05:18 1003 29.62 832 24.57 8.5 47.2 95 7.7 45.8 0
05:19 1003 29.62 832 24.57 8.4 47.1 95 7.6 45.7 0
05:20 1003 29.62 832 24.57 8.4 47.2 95 7.7 45.8 0
05:21 1003 29.62 832 24.57 8.4 47.2 95 7.7 45.8 0
05:22 1003 29.62 832 24.57 8.4 47.1 95 7.7 45.8 0
05:23 1003 29.62 832 24.57 8.4 47.2 95 7.7 45.8 0
05:24 1003 29.62 832 24.57 8.4 47.1 95 7.6 45.7 0
05:25 1003 29.62 832 24.57 8.4 47.1 95 7.6 45.7 0
05:26 1003 29.62 832 24.57 8.4 47.1 95 7.6 45.7 0
05:27 1003 29.62 832 24.57 8.4 47.1 95 7.6 45.6 0
05:28 1003 29.62 832 24.57 8.4 47 95 7.5 45.6 0
05:29 1003 29.62 832 24.57 8.4 47.1 94 7.5 45.6 0
05:30 1003 29.62 832 24.57 8.3 47 94 7.5 45.5 0
05:31 1003 29.62 832 24.57 8.3 47 94 7.5 45.5 0
05:32 1003 29.62 832 24.57 8.3 47 94 7.4 45.4 0
05:33 1003 29.62 832 24.57 8.3 46.9 94 7.4 45.3 0
05:34 1003 29.62 832 24.57 8.3 46.9 94 7.4 45.3 0
05:35 1003 29.62 832 24.57 8.2 46.8 94 7.3 45.2 0
05:36 1003 29.62 832 24.57 8.2 46.8 94 7.3 45.2 0
05:37 1003 29.62 832 24.57 8.2 46.8 94 7.3 45.2 0
05:38 1003 29.62 832 24.57 8.2 46.8 94 7.4 45.2 0
05:39 1003 29.62 832 24.57 8.2 46.8 94 7.4 45.2 0
05:40 1003 29.62 832 24.57 8.2 46.8 95 7.4 45.3 0
05:41 1003 29.62 832 24.57 8.2 46.7 95 7.3 45.2 0
05:42 1003 29.62 832 24.57 8.2 46.7 95 7.3 45.2 0
05:43 1003 29.62 832 24.57 8.1 46.7 94 7.3 45.1 0
05:44 1003 29.62 832 24.57 8.1 46.6 94 7.2 44.9 0
05:45 1003 29.62 832 24.57 8.1 46.6 94 7.2 45 0
05:46 1003 29.62 832 24.57 8.1 46.7 94 7.3 45.1 0
05:47 1003 29.62 832 24.57 8.1 46.7 94 7.3 45.1 0
05:48 1003 29.62 832 24.57 8.2 46.7 94 7.3 45.1 0
05:49 1003 29.62 832 24.57 8.1 46.6 94 7.2 44.9 0
05:50 1003 29.62 832 24.57 8.2 46.7 94 7.2 45 0
05:51 1003 29.62 832 24.57 8.1 46.7 94 7.2 45 0
05:52 1003 29.62 832 24.57 8.1 46.6 94 7.2 45 0
05:53 1003 29.62 832 24.57 8.1 46.6 93 7.1 44.8 0
05:54 1003 29.62 832 24.57 8.1 46.6 93 7 44.7 0
05:55 1003 29.62 832 24.57 8.1 46.6 93 7.1 44.7 0
05:56 1003 29.62 832 24.57 8.1 46.6 93 7.1 44.7 0
05:57 1003 29.62 832 24.57 8.1 46.6 93 7 44.6 0
05:58 1003 29.62 832 24.57 8.1 46.6 93 7 44.5 0
05:59 1003 29.62 832 24.57 8.1 46.6 92 7 44.5 0
06:00 1003 29.62 832 24.57 8.1 46.5 92 6.9 44.4 0
06:01 1002 29.59 832 24.57 8.1 46.5 92 6.9 44.5 0
06:02 1003 29.62 832 24.57 8.1 46.5 92 6.8 44.3 0
06:03 1002 29.59 832 24.57 8.1 46.5 92 6.9 44.4 0
06:04 1002 29.59 832 24.57 8.1 46.5 92 6.8 44.3 0
06:05 1002 29.59 832 24.57 8.1 46.5 92 6.9 44.3 0
06:06 1002 29.59 832 24.57 8 46.4 92 6.9 44.4 0
06:07 1002 29.59 832 24.57 8 46.4 93 6.9 44.4 0
06:08 1002 29.59 832 24.57 8 46.4 93 6.9 44.4 0
06:09 1002 29.59 832 24.57 8 46.4 92 6.8 44.3 0
06:10 1002 29.59 832 24.57 7.9 46.3 93 6.9 44.4 0
06:11 1002 29.59 832 24.57 8 46.3 93 6.9 44.4 0
06:12 1002 29.59 832 24.57 7.9 46.3 93 6.8 44.3 0
06:13 1002 29.59 832 24.57 7.9 46.2 93 6.8 44.3 0
06:14 1002 29.59 832 24.57 7.9 46.3 93 6.8 44.2 0
06:15 1002 29.59 832 24.57 7.9 46.2 93 6.8 44.2 0
06:16 1002 29.59 832 24.57 7.9 46.2 93 6.8 44.3 0
06:17 1002 29.59 832 24.57 7.9 46.2 92 6.7 44.1 0
06:18 1002 29.59 832 24.57 7.9 46.2 93 6.8 44.3 0
06:19 1002 29.59 832 24.57 7.9 46.2 92 6.7 44.1 0
06:20 1002 29.59 832 24.57 7.9 46.2 93 6.8 44.2 0
06:21 1002 29.59 832 24.57 7.9 46.1 93 6.7 44.1 0
06:22 1002 29.59 832 24.57 7.9 46.2 93 6.8 44.2 0
06:23 1002 29.59 832 24.57 7.8 46.1 93 6.7 44.1 0
06:24 1002 29.59 832 24.57 7.8 46.1 93 6.7 44.1 0
06:25 1002 29.59 832 24.57 7.8 46.1 93 6.7 44.1 0
06:26 1002 29.59 832 24.57 7.8 46 93 6.7 44 0
06:27 1002 29.59 832 24.57 7.8 46.1 92 6.6 43.9 0
06:28 1002 29.59 832 24.57 7.8 46 92 6.6 43.9 0
06:29 1002 29.59 832 24.57 7.8 46 92 6.5 43.7 0
06:30 1002 29.59 832 24.57 7.8 46 92 6.6 43.9 0
06:31 1002 29.59 832 24.57 7.8 46 92 6.6 43.8 0
06:32 1002 29.59 832 24.57 7.8 46 92 6.5 43.8 0
06:33 1003 29.62 832 24.57 7.7 45.9 92 6.5 43.6 0
06:34 1003 29.62 832 24.57 7.8 46 92 6.6 43.8 0
06:35 1002 29.59 832 24.57 7.7 45.9 92 6.5 43.7 0
06:36 1002 29.59 832 24.57 7.7 45.8 92 6.5 43.7 0
06:37 1003 29.62 832 24.57 7.6 45.8 91 6.3 43.4 0
06:38 1003 29.62 832 24.57 7.6 45.8 91 6.3 43.4 0
06:39 1003 29.62 832 24.57 7.7 45.8 92 6.4 43.6 0
06:40 1003 29.62 832 24.57 7.6 45.7 92 6.4 43.5 0
06:41 1003 29.62 832 24.57 7.6 45.8 91 6.3 43.4 0
06:42 1002 29.59 832 24.57 7.6 45.8 91 6.3 43.4 0
06:43 1002 29.59 832 24.57 7.6 45.8 91 6.2 43.2 0
06:44 1002 29.59 831 24.54 7.6 45.8 91 6.2 43.2 0
06:45 1002 29.59 831 24.54 7.7 45.8 90 6.2 43.1 0
06:46 1002 29.59 831 24.54 7.7 45.8 91 6.2 43.2 0
06:47 1002 29.59 831 24.54 7.6 45.8 91 6.2 43.2 0
06:48 1002 29.59 831 24.54 7.6 45.7 92 6.3 43.4 0
06:49 1002 29.59 832 24.57 7.5 45.6 91 6.2 43.2 0
06:50 1002 29.59 832 24.57 7.6 45.6 92 6.3 43.4 0
06:51 1003 29.62 832 24.57 7.5 45.5 92 6.3 43.4 0
06:52 1002 29.59 832 24.57 7.5 45.5 92 6.2 43.2 0
06:53 1002 29.59 832 24.57 7.5 45.5 91 6.2 43.2 0
06:54 1002 29.59 832 24.57 7.5 45.5 92 6.3 43.3 0
06:55 1002 29.59 832 24.57 7.5 45.6 92 6.3 43.4 0
06:56 1002 29.59 831 24.54 7.5 45.5 92 6.3 43.4 0
06:57 1002 29.59 831 24.54 7.5 45.5 92 6.3 43.4 0
06:58 1002 29.59 831 24.54 7.5 45.5 91 6.2 43.1 0
06:59 1002 29.59 831 24.54 7.5 45.5 92 6.2 43.2 0
07:00 1002 29.59 832 24.57 7.5 45.4 91 6.2 43.1 0
07:01 1002 29.59 832 24.57 7.5 45.5 92 6.3 43.3 0
07:02 1002 29.59 832 24.57 7.5 45.5 92 6.2 43.2 0
07:03 1002 29.59 832 24.57 7.4 45.4 92 6.2 43.2 0
07:04 1002 29.59 832 24.57 7.4 45.4 92 6.3 43.3 0
07:05 1002 29.59 831 24.54 7.4 45.3 92 6.2 43.1 0
07:06 1002 29.59 831 24.54 7.4 45.4 92 6.2 43.2 0
07:07 1002 29.59 831 24.54 7.4 45.3 92 6.2 43.1 0
07:08 1002 29.59 831 24.54 7.4 45.3 92 6.2 43.1 0
07:09 1002 29.59 831 24.54 7.4 45.2 92 6.2 43.2 0
07:10 1002 29.59 831 24.54 7.4 45.2 92 6.1 42.9 0
07:11 1002 29.59 831 24.54 7.4 45.2 92 6.2 43.1 0
07:12 1002 29.59 831 24.54 7.4 45.2 92 6.2 43.2 0
07:13 1002 29.59 831 24.54 7.3 45.2 92 6.1 43 0
07:14 1002 29.59 831 24.54 7.3 45.2 92 6.2 43.1 0
07:15 1002 29.59 831 24.54 7.4 45.3 92 6.2 43.2 0
07:16 1002 29.59 831 24.54 7.4 45.3 92 6.2 43.1 0
07:17 1002 29.59 831 24.54 7.3 45.2 92 6.1 42.9 0
07:18 1002 29.59 831 24.54 7.3 45.2 91 6 42.7 0
07:19 1002 29.59 831 24.54 7.3 45.2 92 6.1 43 0
07:20 1002 29.59 831 24.54 7.3 45.2 92 6.2 43.1 0
07:21 1002 29.59 831 24.54 7.3 45.2 93 6.2 43.1 0
07:22 1002 29.59 831 24.54 7.3 45.2 92 6.2 43.1 0
07:23 1002 29.59 831 24.54 7.3 45.1 92 6.2 43.1 0
07:24 1002 29.59 831 24.54 7.3 45.2 92 6.1 43 0
07:25 1002 29.59 831 24.54 7.3 45.1 92 6.1 43 0
07:26 1002 29.59 831 24.54 7.3 45.1 93 6.2 43.1 0
07:27 1002 29.59 831 24.54 7.3 45.1 92 6.1 43 0
07:28 1002 29.59 831 24.54 7.2 45 92 6 42.7 0
07:29 1002 29.59 831 24.54 7.3 45.1 92 6.1 42.9 0
07:30 1002 29.59 831 24.54 7.3 45.1 92 6 42.9 0
07:31 1002 29.59 831 24.54 7.2 45 92 6.1 42.9 0
07:32 1002 29.59 831 24.54 7.2 45 92 6 42.8 0
07:33 1002 29.59 831 24.54 7.2 45 92 6 42.8 0
07:34 1002 29.59 831 24.54 7.2 45 93 6.1 42.9 0
07:35 1002 29.59 831 24.54 7.2 44.9 92 6 42.8 0
07:36 1002 29.59 831 24.54 7.2 45 92 6.1 42.9 0
07:37 1002 29.59 831 24.54 7.2 45 92 6.1 42.9 0
07:38 1002 29.59 831 24.54 7.2 44.9 92 5.9 42.7 0
07:39 1002 29.59 831 24.54 7.2 44.9 92 6 42.8 0
07:40 1002 29.59 831 24.54 7.2 44.9 93 6 42.9 0
07:41 1002 29.59 831 24.54 7.2 44.9 92 5.9 42.7 0
07:42 1002 29.59 831 24.54 7.2 44.9 92 6 42.9 0
07:43 1002 29.59 831 24.54 7.2 44.9 93 6.1 43 0
07:44 1002 29.59 831 24.54 7.2 44.9 92 6 42.8 0
07:45 1002 29.59 831 24.54 7.2 44.9 92 5.9 42.7 0
07:46 1002 29.59 831 24.54 7.1 44.8 92 5.9 42.6 0
07:47 1002 29.59 831 24.54 7.1 44.8 92 5.9 42.6 0
07:48 1002 29.59 831 24.54 7.1 44.8 92 6 42.7 0
07:49 1002 29.59 831 24.54 7.1 44.8 92 5.8 42.5 0
07:50 1002 29.59 831 24.54 7.1 44.7 92 5.9 42.5 0
07:51 1002 29.59 831 24.54 7.1 44.7 92 5.8 42.5 0
07:52 1002 29.59 831 24.54 7 44.6 92 5.8 42.5 0
07:53 1002 29.59 831 24.54 7 44.6 92 5.8 42.5 0
07:54 1002 29.59 831 24.54 7 44.6 92 5.8 42.5 0
07:55 1002 29.59 831 24.54 7 44.6 93 5.9 42.6 0
07:56 1002 29.59 831 24.54 7 44.5 93 5.8 42.5 0
07:57 1002 29.59 831 24.54 6.9 44.5 92 5.8 42.4 0
07:58 1002 29.59 831 24.54 6.9 44.5 93 5.8 42.5 0
07:59 1002 29.59 831 24.54 6.9 44.5 93 5.8 42.5 0
08:00 1002 29.59 831 24.54 6.9 44.5 93 5.8 42.5 0
08:01 1002 29.59 831 24.54 6.9 44.5 93 5.8 42.5 0
08:02 1002 29.59 831 24.54 6.9 44.5 92 5.8 42.4 0
08:03 1002 29.59 831 24.54 7 44.5 93 5.9 42.7 0
08:04 1002 29.59 831 24.54 7 44.5 92 5.7 42.2 0
08:05 1002 29.59 831 24.54 6.9 44.5 92 5.8 42.4 0
08:06 1002 29.59 831 24.54 6.9 44.5 92 5.7 42.2 0
08:07 1002 29.59 831 24.54 6.9 44.5 92 5.8 42.4 0
08:08 1002 29.59 832 24.57 6.9 44.4 92 5.8 42.4 0
08:09 1002 29.59 832 24.57 6.9 44.4 93 5.8 42.5 0
08:10 1002 29.59 832 24.57 6.9 44.4 93 5.8 42.4 0
08:11 1002 29.59 832 24.57 6.9 44.4 92 5.7 42.3 0
08:12 1002 29.59 832 24.57 6.8 44.3 92 5.7 42.3 0
08:13 1002 29.59 832 24.57 6.8 44.3 93 5.7 42.3 0
08:14 1002 29.59 832 24.57 6.8 44.3 93 5.7 42.3 0
08:15 1002 29.59 832 24.57 6.8 44.3 93 5.8 42.4 0
08:16 1002 29.59 832 24.57 6.8 44.3 92 5.7 42.2 0
08:17 1002 29.59 832 24.57 6.8 44.3 92 5.6 42.2 0
08:18 1003 29.62 832 24.57 6.8 44.3 93 5.7 42.3 0
08:19 1003 29.62 832 24.57 6.8 44.3 92 5.7 42.2 0
08:20 1003 29.62 832 24.57 6.8 44.3 93 5.7 42.3 0
08:21 1003 29.62 832 24.57 6.8 44.3 93 5.8 42.4 0
08:22 1003 29.62 832 24.57 6.8 44.3 93 5.8 42.4 0
08:23 1003 29.62 832 24.57 6.8 44.2 92 5.6 42.2 0
08:24 1003 29.62 832 24.57 6.8 44.2 92 5.7 42.2 0
08:25 1003 29.62 832 24.57 6.7 44.1 92 5.5 42 0
08:26 1003 29.62 832 24.57 6.7 44.1 92 5.6 42 0
08:27 1003 29.62 832 24.57 6.7 44.1 92 5.6 42 0
08:28 1003 29.62 832 24.57 6.7 44 92 5.5 41.9 0
08:29 1003 29.62 832 24.57 6.7 44 92 5.5 41.9 0
08:30 1003 29.62 832 24.57 6.7 44 92 5.4 41.8 0
08:31 1003 29.62 832 24.57 6.6 43.9 92 5.4 41.7 0
08:32 1003 29.62 832 24.57 6.7 44 92 5.5 42 0
08:33 1003 29.62 832 24.57 6.7 44 92 5.5 41.8 0
08:34 1003 29.62 832 24.57 6.7 44 92 5.5 41.9 0
08:35 1003 29.62 832 24.57 6.7 44 93 5.6 42 0
08:36 1003 29.62 832 24.57 6.7 44 92 5.5 42 0
08:37 1003 29.62 832 24.57 6.6 43.9 92 5.5 41.9 0
08:38 1003 29.62 832 24.57 6.7 44 92 5.5 41.9 0
08:39 1003 29.62 832 24.57 6.6 44 93 5.5 42 0
08:40 1002 29.59 832 24.57 6.6 44 92 5.5 41.9 0
08:41 1002 29.59 832 24.57 6.7 44 93 5.5 42 0
08:42 1002 29.59 832 24.57 6.7 44 93 5.5 42 0
08:43 1002 29.59 832 24.57 6.6 43.8 93 5.5 41.9 0
08:44 1002 29.59 832 24.57 6.6 43.9 93 5.5 42 0
08:45 1002 29.59 832 24.57 6.6 43.8 93 5.6 42 0
08:46 1002 29.59 832 24.57 6.5 43.8 93 5.5 41.9 0
08:47 1002 29.59 832 24.57 6.5 43.7 93 5.5 42 0
08:48 1002 29.59 832 24.57 6.5 43.8 94 5.6 42 0
08:49 1002 29.59 832 24.57 6.5 43.7 93 5.5 41.9 0
08:50 1002 29.59 832 24.57 6.5 43.7 94 5.5 42 0
08:51 1002 29.59 832 24.57 6.5 43.7 93 5.5 41.9 0
08:52 1002 29.59 832 24.57 6.5 43.6 94 5.6 42.1 0
08:53 1002 29.59 832 24.57 6.5 43.7 94 5.6 42.1 0
08:54 1002 29.59 832 24.57 6.5 43.6 94 5.6 42.1 0
08:55 1003 29.62 832 24.57 6.5 43.6 94 5.5 42 0
08:56 1003 29.62 832 24.57 6.4 43.5 94 5.5 41.9 0
08:57 1003 29.62 832 24.57 6.5 43.6 94 5.5 41.9 0
08:58 1003 29.62 832 24.57 6.4 43.6 94 5.5 41.9 0
08:59 1003 29.62 832 24.57 6.4 43.5 94 5.6 42 0
09:00 1003 29.62 832 24.57 6.4 43.5 94 5.5 41.9 0
09:01 1003 29.62 832 24.57 6.4 43.5 94 5.5 41.9 0
09:02 1003 29.62 832 24.57 6.4 43.5 94 5.4 41.8 0
09:03 1002 29.59 832 24.57 6.3 43.4 94 5.4 41.7 0
09:04 1002 29.59 832 24.57 6.3 43.4 94 5.4 41.7 0
09:05 1002 29.59 832 24.57 6.4 43.4 94 5.4 41.7 0
09:06 1002 29.59 832 24.57 6.4 43.5 94 5.5 41.9 0
09:07 1002 29.59 832 24.57 6.3 43.4 94 5.4 41.8 0
09:08 1003 29.62 832 24.57 6.3 43.4 94 5.4 41.7 0
09:09 1002 29.59 832 24.57 6.3 43.4 94 5.4 41.7 0
09:10 1003 29.62 832 24.57 6.3 43.4 94 5.4 41.8 0
09:11 1003 29.62 832 24.57 6.3 43.4 94 5.4 41.8 0
09:12 1003 29.62 832 24.57 6.4 43.4 94 5.5 41.8 0
09:13 1003 29.62 832 24.57 6.3 43.4 94 5.4 41.8 0
09:14 1003 29.62 832 24.57 6.4 43.4 94 5.5 41.9 0
09:15 1003 29.62 832 24.57 6.3 43.4 94 5.4 41.7 0
09:16 1003 29.62 832 24.57 6.3 43.4 94 5.5 41.8 0
09:17 1003 29.62 832 24.57 6.3 43.4 94 5.4 41.8 0
09:18 1003 29.62 832 24.57 6.3 43.4 94 5.4 41.8 0
09:19 1003 29.62 832 24.57 6.4 43.4 94 5.5 41.9 0
09:20 1003 29.62 832 24.57 6.4 43.5 94 5.5 42 0
09:21 1003 29.62 832 24.57 6.4 43.5 94 5.6 42 0
09:22 1003 29.62 832 24.57 6.4 43.5 94 5.5 41.8 0
09:23 1003 29.62 832 24.57 6.4 43.4 95 5.5 42 0
09:24 1003 29.62 832 24.57 6.4 43.5 94 5.6 42 0
09:25 1003 29.62 832 24.57 6.4 43.5 94 5.5 41.9 0
09:26 1003 29.62 832 24.57 6.4 43.5 94 5.4 41.8 0
09:27 1003 29.62 832 24.57 6.4 43.5 94 5.4 41.8 0
09:28 1003 29.62 832 24.57 6.4 43.5 94 5.4 41.8 0
09:29 1003 29.62 832 24.57 6.4 43.5 94 5.4 41.8 0
09:30 1003 29.62 832 24.57 6.4 43.5 94 5.4 41.8 0
09:31 1003 29.62 832 24.57 6.4 43.5 94 5.4 41.8 0
09:32 1003 29.62 832 24.57 6.4 43.5 93 5.4 41.7 0
09:33 1003 29.62 832 24.57 6.4 43.5 94 5.4 41.8 0
09:34 1003 29.62 832 24.57 6.4 43.5 93 5.4 41.7 0
09:35 1003 29.62 832 24.57 6.4 43.5 93 5.4 41.7 0
09:36 1003 29.62 832 24.57 6.4 43.5 93 5.4 41.7 0
09:37 1003 29.62 832 24.57 6.4 43.5 93 5.4 41.8 0
09:38 1003 29.62 832 24.57 6.4 43.5 93 5.4 41.6 0
09:39 1002 29.59 832 24.57 6.4 43.4 93 5.3 41.6 0
09:40 1002 29.59 832 24.57 6.4 43.6 93 5.4 41.7 0
09:41 1002 29.59 832 24.57 6.4 43.5 93 5.3 41.6 0
09:42 1002 29.59 832 24.57 6.4 43.5 93 5.3 41.6 0
09:43 1002 29.59 832 24.57 6.4 43.5 93 5.4 41.7 0
09:44 1002 29.59 832 24.57 6.4 43.6 93 5.4 41.8 0
09:45 1002 29.59 832 24.57 6.4 43.5 93 5.4 41.7 0
09:46 1002 29.59 832 24.57 6.4 43.6 93 5.3 41.6 0
09:47 1002 29.59 832 24.57 6.4 43.6 93 5.4 41.6 0
09:48 1002 29.59 832 24.57 6.4 43.6 92 5.2 41.3 0
09:49 1002 29.59 832 24.57 6.4 43.6 93 5.3 41.5 0
09:50 1002 29.59 832 24.57 6.5 43.6 93 5.4 41.7 0
09:51 1002 29.59 832 24.57 6.5 43.6 93 5.3 41.6 0
09:52 1002 29.59 832 24.57 6.5 43.6 93 5.4 41.7 0
09:53 1002 29.59 832 24.57 6.5 43.6 93 5.4 41.7 0
09:54 1002 29.59 832 24.57 6.4 43.6 93 5.4 41.8 0
09:55 1002 29.59 832 24.57 6.5 43.7 94 5.5 42 0
09:56 1002 29.59 832 24.57 6.5 43.7 94 5.5 42 0
09:57 1002 29.59 832 24.57 6.5 43.6 94 5.5 41.9 0
09:58 1002 29.59 832 24.57 6.5 43.7 94 5.5 42 0
09:59 1002 29.59 832 24.57 6.5 43.6 93 5.4 41.8 0
10:00 1002 29.59 832 24.57 6.4 43.6 93 5.4 41.8 0
10:01 1002 29.59 832 24.57 6.5 43.6 94 5.5 42 0
10:02 1002 29.59 832 24.57 6.5 43.7 94 5.6 42.1 0
10:03 1002 29.59 832 24.57 6.5 43.7 93 5.5 41.9 0
10:04 1002 29.59 832 24.57 6.4 43.6 93 5.4 41.7 0
10:05 1002 29.59 832 24.57 6.5 43.6 94 5.5 41.9 0
10:06 1002 29.59 832 24.57 6.4 43.6 94 5.6 42 0
10:07 1002 29.59 832 24.57 6.5 43.6 94 5.6 42 0
10:08 1002 29.59 832 24.57 6.5 43.7 94 5.6 42.1 0
10:09 1002 29.59 832 24.57 6.5 43.6 94 5.5 41.9 0
10:10 1002 29.59 832 24.57 6.5 43.6 94 5.6 42 0
10:11 1002 29.59 832 24.57 6.5 43.7 95 5.7 42.2 0
10:12 1002 29.59 832 24.57 6.4 43.6 94 5.6 42 0
10:13 1002 29.59 832 24.57 6.5 43.6 94 5.6 42.1 0
10:14 1002 29.59 832 24.57 6.5 43.7 95 5.7 42.3 0
10:15 1002 29.59 832 24.57 6.5 43.8 95 5.8 42.4 0
10:16 1002 29.59 832 24.57 6.5 43.8 94 5.7 42.2 0
10:17 1002 29.59 832 24.57 6.5 43.6 94 5.5 42 0
10:18 1002 29.59 832 24.57 6.5 43.6 95 5.6 42.2 0
10:19 1002 29.59 832 24.57 6.5 43.6 95 5.7 42.2 0
10:20 1002 29.59 832 24.57 6.5 43.6 95 5.7 42.2 0
10:21 1002 29.59 832 24.57 6.5 43.6 94 5.6 42.1 0
10:22 1002 29.59 832 24.57 6.4 43.6 94 5.6 42.1 0
10:23 1002 29.59 832 24.57 6.4 43.6 95 5.6 42.1 0
10:24 1002 29.59 832 24.57 6.4 43.5 94 5.6 42 0
10:25 1002 29.59 832 24.57 6.4 43.5 95 5.6 42.1 0
10:26 1002 29.59 831 24.54 6.4 43.4 95 5.6 42 0
10:27 1002 29.59 831 24.54 6.4 43.5 95 5.6 42.1 0
10:28 1002 29.59 831 24.54 6.4 43.5 95 5.6 42.1 0
10:29 1002 29.59 831 24.54 6.3 43.4 95 5.5 42 0
10:30 1002 29.59 831 24.54 6.3 43.3 95 5.5 41.9 0
10:31 1002 29.59 831 24.54 6.3 43.4 95 5.6 42 0
10:32 1002 29.59 831 24.54 6.3 43.4 95 5.6 42.1 0
10:33 1002 29.59 831 24.54 6.3 43.4 95 5.6 42.1 0
10:34 1002 29.59 831 24.54 6.3 43.3 95 5.6 42 0
10:35 1002 29.59 831 24.54 6.3 43.3 95 5.5 42 0
10:36 1002 29.59 831 24.54 6.2 43.2 95 5.6 42 0
10:37 1002 29.59 831 24.54 6.3 43.3 95 5.6 42 0
10:38 1002 29.59 831 24.54 6.2 43.2 96 5.6 42.1 0
10:39 1002 29.59 831 24.54 6.3 43.3 96 5.7 42.2 0
10:40 1002 29.59 831 24.54 6.3 43.4 96 5.7 42.3 0
10:41 1002 29.59 831 24.54 6.3 43.3 96 5.7 42.2 0
10:42 1002 29.59 831 24.54 6.3 43.4 96 5.7 42.3 0
10:43 1002 29.59 831 24.54 6.3 43.3 96 5.7 42.2 0
10:44 1002 29.59 831 24.54 6.2 43.2 96 5.6 42.1 0
10:45 1002 29.59 831 24.54 6.2 43.2 96 5.6 42.1 0
10:46 1002 29.59 831 24.54 6.2 43.2 96 5.6 42.1 0
10:47 1002 29.59 831 24.54 6.2 43.2 96 5.7 42.2 0
10:48 1002 29.59 831 24.54 6.3 43.3 96 5.7 42.2 0
10:49 1002 29.59 831 24.54 6.3 43.3 96 5.7 42.3 0
10:50 1002 29.59 831 24.54 6.3 43.4 96 5.8 42.4 0
10:51 1002 29.59 831 24.54 6.3 43.3 96 5.7 42.2 0
10:52 1002 29.59 831 24.54 6.3 43.3 96 5.6 42.2 0
10:53 1002 29.59 831 24.54 6.3 43.3 96 5.6 42.1 0
10:54 1002 29.59 831 24.54 6.3 43.3 96 5.6 42.2 0
10:55 1002 29.59 831 24.54 6.3 43.4 96 5.7 42.2 0
10:56 1002 29.59 831 24.54 6.3 43.4 96 5.7 42.3 0
10:57 1002 29.59 831 24.54 6.3 43.4 96 5.7 42.3 0
10:58 1002 29.59 831 24.54 6.4 43.4 96 5.7 42.3 0
10:59 1002 29.59 831 24.54 6.4 43.4 95 5.7 42.2 0
11:00 1002 29.59 831 24.54 6.3 43.4 96 5.7 42.2 0
11:01 1002 29.59 831 24.54 6.4 43.5 96 5.8 42.4 0
11:02 1002 29.59 831 24.54 6.4 43.6 96 5.8 42.5 0
11:03 1002 29.59 831 24.54 6.5 43.7 96 5.9 42.6 0
11:04 1002 29.59 831 24.54 6.5 43.6 95 5.8 42.4 0
11:05 1002 29.59 831 24.54 6.5 43.6 95 5.8 42.4 0
11:06 1002 29.59 831 24.54 6.5 43.6 95 5.7 42.3 0
11:07 1002 29.59 831 24.54 6.5 43.7 95 5.8 42.4 0
11:08 1002 29.59 831 24.54 6.5 43.7 95 5.8 42.5 0
11:09 1002 29.59 831 24.54 6.5 43.8 95 5.9 42.5 0
11:10 1002 29.59 831 24.54 6.5 43.7 95 5.8 42.5 0
11:11 1002 29.59 831 24.54 6.5 43.7 95 5.8 42.4 0
11:12 1002 29.59 831 24.54 6.5 43.8 95 5.9 42.6 0
11:13 1002 29.59 831 24.54 6.6 43.8 95 5.9 42.5 0
11:14 1002 29.59 831 24.54 6.6 43.9 95 5.8 42.5 0
11:15 1002 29.59 831 24.54 6.5 43.7 95 5.7 42.3 0
11:16 1002 29.59 831 24.54 6.5 43.7 95 5.7 42.2 0
11:17 1002 29.59 831 24.54 6.5 43.7 95 5.7 42.3 0
11:18 1002 29.59 831 24.54 6.5 43.7 95 5.7 42.3 0
11:19 1002 29.59 831 24.54 6.5 43.6 95 5.7 42.3 0
11:20 1002 29.59 831 24.54 6.5 43.7 94 5.6 42.1 0
11:21 1002 29.59 831 24.54 6.5 43.7 95 5.7 42.2 0
11:22 1002 29.59 831 24.54 6.5 43.7 95 5.7 42.3 0
11:23 1002 29.59 831 24.54 6.5 43.6 95 5.7 42.3 0
11:24 1002 29.59 831 24.54 6.5 43.7 95 5.8 42.4 0
11:25 1002 29.59 831 24.54 6.5 43.7 95 5.7 42.3 0
11:26 1002 29.59 831 24.54 6.5 43.7 95 5.7 42.3 0
11:27 1002 29.59 831 24.54 6.5 43.6 94 5.5 42 0
11:28 1002 29.59 831 24.54 6.5 43.7 94 5.7 42.2 0
11:29 1002 29.59 831 24.54 6.5 43.6 95 5.7 42.3 0
11:30 1002 29.59 831 24.54 6.5 43.7 95 5.8 42.4 0
11:31 1002 29.59 831 24.54 6.5 43.7 95 5.7 42.3 0
11:32 1002 29.59 831 24.54 6.5 43.7 94 5.7 42.2 0
11:33 1002 29.59 831 24.54 6.5 43.7 95 5.7 42.3 0
11:34 1002 29.59 831 24.54 6.5 43.7 94 5.7 42.2 0
11:35 1002 29.59 831 24.54 6.5 43.7 95 5.7 42.3 0
11:36 1002 29.59 831 24.54 6.5 43.8 95 5.7 42.3 0
11:37 1002 29.59 831 24.54 6.5 43.7 94 5.7 42.2 0
11:38 1002 29.59 831 24.54 6.5 43.7 95 5.7 42.3 0
11:39 1002 29.59 831 24.54 6.5 43.8 95 5.8 42.4 0
11:40 1002 29.59 831 24.54 6.5 43.7 94 5.7 42.2 0
11:41 1002 29.59 831 24.54 6.5 43.7 94 5.6 42.1 0
11:42 1002 29.59 831 24.54 6.5 43.6 94 5.6 42 0
11:43 1002 29.59 831 24.54 6.5 43.7 95 5.7 42.2 0
11:44 1002 29.59 831 24.54 6.5 43.6 95 5.6 42.2 0
11:45 1002 29.59 831 24.54 6.5 43.6 95 5.6 42.2 0
11:46 1002 29.59 831 24.54 6.5 43.6 95 5.7 42.2 0
11:47 1002 29.59 831 24.54 6.4 43.6 94 5.6 42.1 0
11:48 1002 29.59 831 24.54 6.4 43.6 94 5.6 42.1 0
11:49 1002 29.59 831 24.54 6.4 43.5 95 5.6 42 0
11:50 1002 29.59 831 24.54 6.4 43.4 94 5.5 41.9 0
11:51 1002 29.59 831 24.54 6.3 43.4 95 5.5 42 0
11:52 1002 29.59 831 24.54 6.3 43.4 95 5.7 42.2 0
11:53 1002 29.59 831 24.54 6.4 43.5 95 5.7 42.2 0
11:54 1002 29.59 831 24.54 6.3 43.4 95 5.6 42.1 0
11:55 1002 29.59 831 24.54 6.3 43.4 95 5.6 42 0
11:56 1002 29.59 831 24.54 6.3 43.4 95 5.5 42 0
11:57 1002 29.59 831 24.54 6.3 43.4 95 5.6 42 0
11:58 1002 29.59 831 24.54 6.3 43.4 95 5.6 42 0
11:59 1002 29.59 831 24.54 6.3 43.4 95 5.6 42 0
12:00 1002 29.59 831 24.54 6.3 43.4 95 5.6 42.1 0
12:01 1002 29.59 831 24.54 6.3 43.3 95 5.6 42 0
12:02 1002 29.59 831 24.54 6.3 43.3 95 5.6 42 0
12:03 1002 29.59 831 24.54 6.3 43.3 95 5.5 42 0
12:04 1002 29.59 831 24.54 6.3 43.3 96 5.6 42.1 0
12:05 1002 29.59 831 24.54 6.3 43.3 95 5.4 41.8 0
12:06 1002 29.59 831 24.54 6.2 43.2 95 5.5 41.9 0
12:07 1002 29.59 831 24.54 6.3 43.3 95 5.6 42.1 0
12:08 1002 29.59 831 24.54 6.3 43.3 95 5.6 42.1 0
12:09 1002 29.59 831 24.54 6.3 43.3 95 5.5 42 0
12:10 1002 29.59 831 24.54 6.3 43.3 96 5.6 42.1 0
12:11 1002 29.59 831 24.54 6.3 43.3 96 5.7 42.2 0
12:12 1002 29.59 831 24.54 6.3 43.3 96 5.6 42.1 0
12:13 1002 29.59 831 24.54 6.3 43.3 96 5.7 42.2 0
12:14 1002 29.59 831 24.54 6.3 43.3 96 5.7 42.2 0
12:15 1002 29.59 831 24.54 6.3 43.3 96 5.7 42.2 0
12:16 1002 29.59 831 24.54 6.3 43.3 96 5.7 42.3 0
12:17 1002 29.59 831 24.54 6.3 43.4 96 5.7 42.3 0
12:18 1002 29.59 831 24.54 6.3 43.4 96 5.8 42.4 0
12:19 1002 29.59 831 24.54 6.3 43.4 96 5.8 42.4 0
12:20 1002 29.59 831 24.54 6.3 43.4 96 5.8 42.4 0
12:21 1002 29.59 831 24.54 6.3 43.4 96 5.7 42.3 0
12:22 1002 29.59 831 24.54 6.3 43.4 96 5.8 42.4 0
12:23 1002 29.59 831 24.54 6.3 43.4 96 5.7 42.3 0
12:24 1002 29.59 831 24.54 6.3 43.4 96 5.7 42.3 0
12:25 1002 29.59 831 24.54 6.3 43.3 96 5.7 42.2 0
12:26 1002 29.59 832 24.57 6.3 43.3 96 5.7 42.2 0
12:27 1002 29.59 832 24.57 6.3 43.4 96 5.7 42.3 0
12:28 1002 29.59 832 24.57 6.3 43.4 96 5.7 42.3 0
12:29 1002 29.59 832 24.57 6.3 43.4 96 5.7 42.2 0
12:30 1002 29.59 832 24.57 6.3 43.3 96 5.7 42.2 0
12:31 1002 29.59 832 24.57 6.2 43.2 96 5.6 42.1 0
12:32 1002 29.59 832 24.57 6.3 43.4 96 5.7 42.3 0
12:33 1002 29.59 832 24.57 6.3 43.3 96 5.7 42.3 0
12:34 1002 29.59 832 24.57 6.3 43.3 96 5.7 42.2 0
12:35 1002 29.59 832 24.57 6.3 43.3 96 5.8 42.4 0
12:36 1002 29.59 832 24.57 6.3 43.4 96 5.8 42.4 0
12:37 1002 29.59 832 24.57 6.3 43.3 96 5.7 42.3 0
12:38 1002 29.59 832 24.57 6.3 43.3 96 5.7 42.3 0
12:39 1002 29.59 832 24.57 6.3 43.3 96 5.7 42.3 0
12:40 1002 29.59 832 24.57 6.3 43.3 96 5.7 42.3 0
12:41 1002 29.59 832 24.57 6.3 43.3 96 5.8 42.4 0
12:42 1002 29.59 832 24.57 6.3 43.4 97 5.8 42.4 0
12:43 1002 29.59 832 24.57 6.3 43.4 96 5.8 42.4 0
12:44 1002 29.59 832 24.57 6.3 43.3 96 5.7 42.3 0
12:45 1002 29.59 832 24.57 6.3 43.3 96 5.7 42.2 0
12:46 1002 29.59 832 24.57 6.2 43.2 96 5.7 42.3 0
12:47 1002 29.59 832 24.57 6.3 43.3 96 5.8 42.4 0
12:48 1002 29.59 832 24.57 6.2 43.2 97 5.7 42.3 0
12:49 1002 29.59 832 24.57 6.2 43.2 96 5.7 42.3 0
12:50 1002 29.59 832 24.57 6.2 43.2 96 5.7 42.2 0
12:51 1002 29.59 832 24.57 6.2 43.2 96 5.7 42.3 0
12:52 1002 29.59 832 24.57 6.3 43.3 97 5.7 42.3 0
12:53 1002 29.59 832 24.57 6.3 43.3 97 5.8 42.4 0
12:54 1002 29.59 832 24.57 6.3 43.3 97 5.8 42.4 0
12:55 1002 29.59 832 24.57 6.3 43.3 97 5.8 42.4 0
12:56 1002 29.59 832 24.57 6.3 43.3 96 5.7 42.3 0
12:57 1002 29.59 832 24.57 6.3 43.3 96 5.7 42.3 0
12:58 1002 29.59 832 24.57 6.3 43.3 96 5.7 42.3 0
12:59 1002 29.59 832 24.57 6.3 43.3 96 5.8 42.4 0
13:00 1003 29.62 832 24.57 6.3 43.4 96 5.8 42.5 0
13:01 1003 29.62 832 24.57 6.3 43.4 96 5.8 42.4 0
13:02 1003 29.62 832 24.57 6.3 43.3 96 5.7 42.2 0
13:03 1003 29.62 832 24.57 6.3 43.3 96 5.7 42.3 0
13:04 1003 29.62 832 24.57 6.3 43.3 96 5.7 42.2 0
13:05 1003 29.62 832 24.57 6.2 43.2 96 5.7 42.2 0
13:06 1003 29.62 832 24.57 6.2 43.2 96 5.6 42.2 0
13:07 1003 29.62 832 24.57 6.2 43.2 96 5.6 42.1 0
13:08 1003 29.62 832 24.57 6.2 43.2 96 5.6 42.1 0
13:09 1003 29.62 832 24.57 6.2 43.2 96 5.7 42.2 0
13:10 1003 29.62 832 24.57 6.2 43.2 96 5.6 42.1 0
13:11 1003 29.62 832 24.57 6.2 43.2 96 5.6 42 0
13:12 1003 29.62 832 24.57 6.2 43.2 96 5.6 42.1 0
13:13 1003 29.62 832 24.57 6.3 43.3 96 5.7 42.2 0
13:14 1003 29.62 832 24.57 6.3 43.3 96 5.7 42.2 0
13:15 1003 29.62 832 24.57 6.2 43.2 96 5.7 42.2 0
13:16 1003 29.62 832 24.57 6.3 43.3 96 5.7 42.2 0
13:17 1003 29.62 832 24.57 6.3 43.3 96 5.7 42.2 0
13:18 1003 29.62 832 24.57 6.2 43.2 96 5.6 42.1 0
13:19 1003 29.62 832 24.57 6.3 43.3 96 5.6 42.1 0
13:20 1003 29.62 832 24.57 6.2 43.2 96 5.6 42.2 0
13:21 1003 29.62 832 24.57 6.2 43.2 95 5.6 42 0
13:22 1003 29.62 832 24.57 6.2 43.2 96 5.6 42.1 0
13:23 1003 29.62 832 24.57 6.3 43.3 96 5.6 42.1 0
13:24 1003 29.62 832 24.57 6.3 43.3 96 5.7 42.2 0
13:25 1003 29.62 832 24.57 6.3 43.3 96 5.7 42.2 0
13:26 1003 29.62 832 24.57 6.3 43.4 96 5.7 42.3 0
13:27 1003 29.62 832 24.57 6.3 43.4 96 5.7 42.3 0
13:28 1003 29.62 832 24.57 6.4 43.5 96 5.8 42.4 0
13:29 1003 29.62 832 24.57 6.3 43.4 96 5.7 42.3 0
13:30 1003 29.62 832 24.57 6.3 43.4 95 5.6 42.2 0
13:31 1003 29.62 832 24.57 6.3 43.4 96 5.7 42.3 0
13:32 1003 29.62 832 24.57 6.4 43.5 96 5.7 42.3 0
13:33 1003 29.62 832 24.57 6.3 43.4 96 5.7 42.2 0
13:34 1003 29.62 832 24.57 6.4 43.5 95 5.7 42.3 0
13:35 1003 29.62 832 24.57 6.3 43.4 95 5.6 42.1 0
13:36 1003 29.62 832 24.57 6.3 43.4 96 5.7 42.2 0
13:37 1003 29.62 832 24.57 6.4 43.5 96 5.8 42.4 0
13:38 1003 29.62 832 24.57 6.4 43.5 95 5.7 42.3 0
13:39 1003 29.62 832 24.57 6.4 43.6 96 5.8 42.4 0
13:40 1003 29.62 832 24.57 6.4 43.5 95 5.7 42.3 0
13:41 1003 29.62 832 24.57 6.4 43.5 96 5.8 42.4 0
13:42 1003 29.62 832 24.57 6.4 43.5 95 5.7 42.2 0
13:43 1003 29.62 832 24.57 6.4 43.4 95 5.7 42.2 0
13:44 1003 29.62 832 24.57 6.4 43.5 96 5.8 42.4 0
13:45 1003 29.62 832 24.57 6.4 43.5 95 5.7 42.3 0
13:46 1003 29.62 832 24.57 6.4 43.5 95 5.7 42.2 0
13:47 1003 29.62 832 24.57 6.4 43.5 95 5.6 42.1 0
13:48 1003 29.62 832 24.57 6.3 43.4 95 5.5 42 0
13:49 1003 29.62 832 24.57 6.3 43.4 95 5.6 42 0
13:50 1003 29.62 832 24.57 6.4 43.4 95 5.7 42.2 0
13:51 1003 29.62 832 24.57 6.3 43.4 95 5.6 42 0
13:52 1003 29.62 832 24.57 6.3 43.4 95 5.6 42.1 0
13:53 1003 29.62 832 24.57 6.3 43.4 95 5.6 42 0
13:54 1003 29.62 832 24.57 6.3 43.4 95 5.6 42 0
13:55 1003 29.62 832 24.57 6.3 43.4 95 5.6 42.1 0
13:56 1003 29.62 832 24.57 6.4 43.5 95 5.7 42.2 0
13:57 1003 29.62 832 24.57 6.4 43.6 95 5.7 42.3 0
13:58 1003 29.62 833 24.6 6.4 43.5 95 5.6 42.1 0
13:59 1003 29.62 833 24.6 6.4 43.5 95 5.7 42.3 0
14:00 1003 29.62 833 24.6 6.4 43.6 95 5.7 42.2 0
14:01 1003 29.62 833 24.6 6.4 43.6 95 5.7 42.3 0
14:02 1003 29.62 833 24.6 6.5 43.6 95 5.7 42.3 0
14:03 1003 29.62 833 24.6 6.5 43.6 95 5.6 42.2 0
14:04 1003 29.62 833 24.6 6.4 43.6 95 5.7 42.2 0
14:05 1003 29.62 833 24.6 6.5 43.7 96 5.8 42.5 0
14:06 1003 29.62 833 24.6 6.5 43.8 95 5.8 42.5 0
14:07 1003 29.62 833 24.6 6.6 43.8 95 5.9 42.5 0
14:08 1003 29.62 833 24.6 6.6 43.9 95 5.8 42.5 0
14:09 1003 29.62 833 24.6 6.6 43.8 95 5.8 42.4 0
14:10 1003 29.62 833 24.6 6.6 43.9 95 5.9 42.5 0
14:11 1003 29.62 833 24.6 6.6 43.9 95 5.9 42.6 0
14:12 1003 29.62 833 24.6 6.6 43.9 95 5.8 42.5 0
14:13 1003 29.62 833 24.6 6.6 43.8 94 5.7 42.2 0
14:14 1003 29.62 833 24.6 6.5 43.8 94 5.6 42.1 0
14:15 1004 29.65 833 24.6 6.5 43.7 94 5.5 42 0
14:16 1004 29.65 833 24.6 6.5 43.7 94 5.6 42.2 0
14:17 1004 29.65 833 24.6 6.5 43.7 95 5.7 42.3 0
14:18 1004 29.65 833 24.6 6.5 43.7 94 5.7 42.2 0
14:19 1004 29.65 833 24.6 6.5 43.7 94 5.7 42.2 0
14:20 1004 29.65 833 24.6 6.5 43.7 95 5.7 42.3 0
14:21 1004 29.65 833 24.6 6.5 43.6 94 5.6 42.2 0
14:22 1004 29.65 833 24.6 6.5 43.6 94 5.6 42.1 0
14:23 1004 29.65 833 24.6 6.4 43.6 94 5.6 42.1 0
14:24 1004 29.65 833 24.6 6.4 43.5 94 5.5 41.9 0
14:25 1004 29.65 833 24.6 6.3 43.4 94 5.4 41.7 0
14:26 1004 29.65 833 24.6 6.3 43.3 93 5.2 41.4 0
14:27 1004 29.65 833 24.6 6.2 43.2 93 5.2 41.3 0
14:28 1004 29.65 833 24.6 6.2 43.1 93 5.2 41.3 0
14:29 1004 29.65 833 24.6 6.1 43.1 94 5.2 41.4 0
14:30 1004 29.65 833 24.6 6.1 43 93 5.1 41.3 0
14:31 1004 29.65 833 24.6 6.1 43 94 5.2 41.4 0
14:32 1004 29.65 833 24.6 6.1 43 94 5.2 41.4 0
14:33 1004 29.65 833 24.6 6.1 43 94 5.2 41.4 0
14:34 1004 29.65 833 24.6 6.1 43 95 5.3 41.5 0
14:35 1004 29.65 833 24.6 6.1 42.9 95 5.3 41.5 0
14:36 1004 29.65 833 24.6 6.1 42.9 95 5.3 41.5 0
14:37 1004 29.65 833 24.6 6.1 42.9 95 5.2 41.4 0
14:38 1004 29.65 833 24.6 6.1 42.9 95 5.2 41.4 0
14:39 1004 29.65 833 24.6 6.1 43 95 5.3 41.6 0
14:40 1004 29.65 833 24.6 6 42.9 95 5.2 41.4 0
14:41 1004 29.65 833 24.6 6.1 42.9 95 5.3 41.6 0
14:42 1004 29.65 833 24.6 6.1 42.9 94 5.2 41.4 0
14:43 1004 29.65 833 24.6 6.1 42.9 95 5.3 41.5 0
14:44 1004 29.65 833 24.6 6.1 43 95 5.4 41.6 0
14:45 1004 29.65 833 24.6 6.1 42.9 94 5.2 41.4 0
14:46 1004 29.65 833 24.6 6 42.9 94 5.1 41.3 0
14:47 1004 29.65 833 24.6 6 42.8 94 5.1 41.2 0
14:48 1004 29.65 833 24.6 6 42.8 94 5.1 41.3 0
14:49 1004 29.65 833 24.6 6 42.7 94 5.1 41.2 0
14:50 1004 29.65 833 24.6 5.9 42.7 94 5 41.1 0
14:51 1004 29.65 833 24.6 6 42.7 94 5.1 41.1 0
14:52 1004 29.65 833 24.6 5.9 42.6 94 5 41 0
14:53 1004 29.65 833 24.6 5.9 42.6 94 5 41.1 0
14:54 1004 29.65 833 24.6 5.9 42.5 94 5 41 0
14:55 1004 29.65 833 24.6 5.9 42.6 95 5.1 41.1 0
14:56 1004 29.65 833 24.6 5.8 42.5 94 5 41 0
14:57 1004 29.65 833 24.6 5.8 42.5 95 5 41.1 0
14:58 1004 29.65 833 24.6 5.8 42.5 94 5 41 0
14:59 1004 29.65 833 24.6 5.8 42.4 95 5 41 0
15:00 1004 29.65 833 24.6 5.8 42.4 95 5 41 0
15:01 1004 29.65 833 24.6 5.8 42.4 95 5 41 0
15:02 1004 29.65 833 24.6 5.8 42.4 95 5 41 0
15:03 1004 29.65 833 24.6 5.8 42.4 95 5 41 0
15:04 1004 29.65 833 24.6 5.8 42.4 95 5 41 0
15:05 1004 29.65 833 24.6 5.8 42.5 95 5.1 41.1 0
15:06 1004 29.65 833 24.6 5.8 42.4 95 5 41.1 0
15:07 1004 29.65 833 24.6 5.8 42.5 96 5.2 41.3 0
15:08 1004 29.65 833 24.6 5.9 42.6 96 5.2 41.4 0
15:09 1004 29.65 833 24.6 5.9 42.6 95 5.2 41.3 0
15:10 1004 29.65 833 24.6 5.8 42.5 95 5.1 41.2 0
15:11 1004 29.65 833 24.6 5.8 42.5 95 5.1 41.3 0
15:12 1004 29.65 833 24.6 5.8 42.5 95 5.1 41.3 0
15:13 1004 29.65 833 24.6 5.8 42.5 94 5 41 0
15:14 1004 29.65 833 24.6 5.8 42.4 94 4.9 40.7 0
15:15 1004 29.65 833 24.6 5.7 42.3 94 4.8 40.6 0
15:16 1004 29.65 833 24.6 5.7 42.3 94 4.8 40.7 0
15:17 1004 29.65 833 24.6 5.7 42.3 93 4.8 40.6 0
15:18 1004 29.65 834 24.63 5.7 42.3 94 4.8 40.7 0
15:19 1004 29.65 834 24.63 5.7 42.3 94 4.8 40.7 0
15:20 1004 29.65 834 24.63 5.7 42.3 94 4.9 40.7 0
15:21 1004 29.65 834 24.63 5.7 42.3 94 4.9 40.8 0
15:22 1004 29.65 834 24.63 5.7 42.3 95 4.9 40.9 0
15:23 1004 29.65 834 24.63 5.8 42.4 95 5 40.9 0
15:24 1004 29.65 834 24.63 5.7 42.3 95 4.9 40.9 0
15:25 1004 29.65 834 24.63 5.7 42.3 95 4.9 40.9 0
15:26 1004 29.65 834 24.63 5.7 42.3 95 4.9 40.9 0
15:27 1004 29.65 834 24.63 5.7 42.3 95 5 40.9 0
15:28 1004 29.65 834 24.63 5.7 42.3 95 5 40.9 0
15:29 1004 29.65 834 24.63 5.7 42.3 95 5 40.9 0
15:30 1004 29.65 834 24.63 5.7 42.3 95 4.9 40.9 0
15:31 1005 29.68 834 24.63 5.7 42.3 95 4.9 40.9 0
15:32 1005 29.68 834 24.63 5.7 42.3 94 4.9 40.8 0
15:33 1005 29.68 834 24.63 5.7 42.3 94 4.9 40.8 0
15:34 1005 29.68 834 24.63 5.7 42.3 95 5 41 0
15:35 1005 29.68 834 24.63 5.8 42.4 95 5 41 0
15:36 1005 29.68 834 24.63 5.8 42.4 95 5 41 0
15:37 1005 29.68 834 24.63 5.7 42.3 95 4.9 40.9 0
15:38 1005 29.68 834 24.63 5.7 42.3 94 4.9 40.7 0
15:39 1005 29.68 834 24.63 5.7 42.3 94 4.9 40.7 0
15:40 1005 29.68 834 24.63 5.7 42.3 94 4.9 40.8 0
15:41 1005 29.68 834 24.63 5.8 42.4 94 4.9 40.9 0
15:42 1005 29.68 834 24.63 5.8 42.4 94 4.9 40.8 0
15:43 1005 29.68 834 24.63 5.8 42.4 95 5 40.9 0
15:44 1005 29.68 834 24.63 5.8 42.4 94 4.9 40.8 0
15:45 1005 29.68 834 24.63 5.8 42.4 94 4.8 40.7 0
15:46 1005 29.68 834 24.63 5.8 42.4 94 4.9 40.8 0
15:47 1005 29.68 834 24.63 5.8 42.4 94 4.8 40.7 0
15:48 1005 29.68 834 24.63 5.7 42.3 93 4.7 40.5 0
15:49 1005 29.68 834 24.63 5.7 42.2 94 4.7 40.5 0
15:50 1005 29.68 834 24.63 5.7 42.3 93 4.6 40.4 0
15:51 1005 29.68 834 24.63 5.7 42.2 93 4.7 40.4 0
15:52 1005 29.68 834 24.63 5.7 42.3 94 4.8 40.6 0
15:53 1005 29.68 834 24.63 5.7 42.2 94 4.7 40.5 0
15:54 1005 29.68 834 24.63 5.7 42.2 94 4.8 40.7 0
15:55 1005 29.68 834 24.63 5.7 42.3 94 4.8 40.6 0
15:56 1005 29.68 834 24.63 5.7 42.3 93 4.7 40.5 0
15:57 1005 29.68 834 24.63 5.7 42.3 94 4.8 40.6 0
15:58 1005 29.68 834 24.63 5.7 42.3 93 4.7 40.4 0
15:59 1005 29.68 834 24.63 5.7 42.3 93 4.7 40.5 0
16:00 1005 29.68 834 24.63 5.7 42.3 93 4.7 40.4 0
16:01 1005 29.68 834 24.63 5.7 42.3 92 4.6 40.3 0
16:02 1005 29.68 834 24.63 5.7 42.3 93 4.7 40.4 0
16:03 1005 29.68 834 24.63 5.8 42.4 93 4.8 40.6 0
16:04 1005 29.68 834 24.63 5.8 42.4 93 4.7 40.4 0
16:05 1005 29.68 834 24.63 5.8 42.4 92 4.6 40.3 0
16:06 1005 29.68 834 24.63 5.7 42.3 92 4.5 40.1 0
16:07 1005 29.68 834 24.63 5.7 42.3 93 4.7 40.4 0
16:08 1005 29.68 834 24.63 5.7 42.3 91 4.4 39.8 0
16:09 1005 29.68 834 24.63 5.7 42.3 91 4.4 39.9 0
16:10 1005 29.68 834 24.63 5.7 42.3 92 4.5 40.1 0
16:11 1005 29.68 834 24.63 5.7 42.3 92 4.6 40.2 0
16:12 1005 29.68 834 24.63 5.7 42.2 92 4.5 40.1 0
16:13 1005 29.68 834 24.63 5.7 42.3 92 4.5 40.1 0
16:14 1005 29.68 834 24.63 5.7 42.2 92 4.5 40.1 0
16:15 1005 29.68 834 24.63 5.7 42.2 92 4.5 40.1 0
16:16 1005 29.68 834 24.63 5.6 42.1 92 4.4 39.8 0
16:17 1005 29.68 834 24.63 5.6 42.1 92 4.4 39.9 0
16:18 1005 29.68 834 24.63 5.6 42.1 91 4.3 39.8 0
16:19 1005 29.68 834 24.63 5.6 42 92 4.4 39.9 0
16:20 1005 29.68 834 24.63 5.6 42.1 93 4.6 40.2 0
16:21 1005 29.68 834 24.63 5.6 42.1 93 4.6 40.2 0
16:22 1005 29.68 834 24.63 5.6 42.1 93 4.6 40.3 0
16:23 1005 29.68 834 24.63 5.6 42.1 93 4.6 40.2 0
16:24 1005 29.68 834 24.63 5.6 42.1 92 4.4 40 0
16:25 1005 29.68 834 24.63 5.6 42.1 93 4.5 40.1 0
16:26 1005 29.68 834 24.63 5.6 42.1 93 4.6 40.3 0
16:27 1005 29.68 834 24.63 5.6 42.1 93 4.5 40.1 0
16:28 1005 29.68 834 24.63 5.6 42.1 93 4.6 40.2 0
16:29 1005 29.68 834 24.63 5.6 42.1 93 4.5 40.2 0
16:30 1005 29.68 834 24.63 5.6 42.1 92 4.4 40 0
16:31 1005 29.68 834 24.63 5.6 42 93 4.5 40.1 0
16:32 1005 29.68 834 24.63 5.6 42.1 92 4.5 40 0
16:33 1005 29.68 834 24.63 5.6 42 92 4.4 39.9 0
16:34 1005 29.68 834 24.63 5.6 42 93 4.6 40.2 0
16:35 1005 29.68 834 24.63 5.6 42 93 4.6 40.2 0
16:36 1005 29.68 834 24.63 5.6 42 93 4.5 40.1 0
16:37 1005 29.68 834 24.63 5.6 42 93 4.4 40 0
16:38 1005 29.68 834 24.63 5.5 41.9 93 4.4 39.9 0
16:39 1005 29.68 834 24.63 5.5 41.8 92 4.2 39.6 0
16:40 1005 29.68 834 24.63 5.4 41.8 92 4.2 39.5 0
16:41 1005 29.68 834 24.63 5.4 41.7 93 4.4 39.8 0
16:42 1005 29.68 834 24.63 5.4 41.7 92 4.2 39.5 0
16:43 1005 29.68 834 24.63 5.3 41.6 92 4.2 39.5 0
16:44 1005 29.68 834 24.63 5.3 41.5 91 4 39.2 0
16:45 1005 29.68 834 24.63 5.3 41.5 92 4.1 39.4 0
16:46 1005 29.68 834 24.63 5.2 41.4 93 4.2 39.6 0
16:47 1005 29.68 835 24.66 5.3 41.5 92 4.1 39.5 0
16:48 1005 29.68 835 24.66 5.3 41.5 92 4.1 39.5 0
16:49 1005 29.68 835 24.66 5.2 41.4 92 4 39.3 0
16:50 1005 29.68 835 24.66 5.2 41.3 92 4 39.2 0
16:51 1005 29.68 835 24.66 5.2 41.3 92 4 39.3 0
16:52 1005 29.68 835 24.66 5.2 41.3 91 3.8 38.9 0
16:53 1005 29.68 835 24.66 5.1 41.2 92 3.9 39 0
16:54 1005 29.68 835 24.66 5.1 41.2 92 3.9 39.1 0
16:55 1005 29.68 835 24.66 5.1 41.3 93 4 39.3 0
16:56 1005 29.68 835 24.66 5.2 41.3 92 4 39.3 0
16:57 1005 29.68 835 24.66 5.2 41.3 92 4 39.2 0
16:58 1005 29.68 835 24.66 5.2 41.3 93 4 39.3 0
16:59 1005 29.68 835 24.66 5.2 41.3 93 4.1 39.4 0
17:00 1005 29.68 835 24.66 5.2 41.3 93 4.1 39.4 0
17:01 1005 29.68 835 24.66 5.2 41.3 93 4.1 39.4 0
17:02 1005 29.68 835 24.66 5.2 41.3 93 4.1 39.3 0
17:03 1005 29.68 835 24.66 5.2 41.3 93 4.1 39.5 0
17:04 1005 29.68 835 24.66 5.2 41.4 93 4.1 39.5 0
17:05 1005 29.68 835 24.66 5.2 41.3 92 4 39.3 0
17:06 1006 29.71 835 24.66 5.1 41.3 92 4 39.2 0
17:07 1006 29.71 835 24.66 5.2 41.3 92 4 39.2 0
17:08 1006 29.71 835 24.66 5.1 41.3 92 4 39.2 0
17:09 1006 29.71 835 24.66 5.2 41.3 93 4.1 39.4 0
17:10 1006 29.71 835 24.66 5.1 41.2 92 3.9 39.1 0
17:11 1006 29.71 835 24.66 5.1 41.2 92 3.9 39 0
17:12 1006 29.71 835 24.66 5.1 41.2 93 4 39.2 0
17:13 1006 29.71 835 24.66 5.1 41.1 93 4 39.2 0
17:14 1006 29.71 835 24.66 5.1 41.2 93 4 39.2 0
17:15 1006 29.71 835 24.66 5 41.1 93 3.9 39.1 0
17:16 1006 29.71 835 24.66 5 41 93 4 39.3 0
17:17 1006 29.71 835 24.66 5.1 41.1 93 4 39.2 0
17:18 1006 29.71 835 24.66 5 41.1 93 4 39.2 0
17:19 1006 29.71 835 24.66 5 41 93 3.9 39 0
17:20 1006 29.71 835 24.66 5 41 93 4 39.2 0
17:21 1006 29.71 835 24.66 5 41.1 93 4.1 39.3 0
17:22 1006 29.71 835 24.66 5 41 94 4.1 39.4 0
17:23 1006 29.71 835 24.66 5 41 93 4 39.2 0
17:24 1006 29.71 835 24.66 5 41 93 4 39.2 0
17:25 1006 29.71 835 24.66 5 41 93 4 39.2 0
17:26 1006 29.71 835 24.66 5 41 93 4 39.2 0
17:27 1006 29.71 835 24.66 5 40.9 93 4 39.1 0
17:28 1006 29.71 835 24.66 4.9 40.9 94 4 39.1 0
17:29 1006 29.71 835 24.66 4.9 40.9 94 4 39.2 0
17:30 1006 29.71 835 24.66 4.9 40.8 94 4 39.1 0
17:31 1006 29.71 835 24.66 4.9 40.9 94 4 39.1 0
17:32 1006 29.71 835 24.66 4.9 40.8 94 4 39.2 0
17:33 1006 29.71 835 24.66 4.9 40.8 93 3.9 39 0
17:34 1006 29.71 835 24.66 4.9 40.8 93 3.9 39 0
17:35 1006 29.71 835 24.66 4.9 40.8 93 3.9 39 0
17:36 1006 29.71 835 24.66 4.9 40.8 94 3.9 39.1 0
17:37 1006 29.71 835 24.66 4.9 40.8 94 4 39.1 0
17:38 1006 29.71 835 24.66 4.9 40.8 93 3.9 38.9 0
17:39 1006 29.71 835 24.66 4.8 40.7 93 3.8 38.9 0
17:40 1006 29.71 835 24.66 4.8 40.7 93 3.8 38.9 0
17:41 1006 29.71 835 24.66 4.8 40.6 94 3.8 38.9 0
17:42 1006 29.71 835 24.66 4.8 40.7 94 3.9 39 0
17:43 1006 29.71 835 24.66 4.8 40.6 94 3.8 38.9 0
17:44 1006 29.71 835 24.66 4.8 40.6 94 3.9 39 0
17:45 1006 29.71 835 24.66 4.8 40.7 94 3.9 39 0
17:46 1006 29.71 835 24.66 4.8 40.7 94 3.9 39.1 0
17:47 1006 29.71 835 24.66 4.8 40.7 94 4 39.1 0
17:48 1006 29.71 835 24.66 4.8 40.7 94 4 39.2 0
17:49 1006 29.71 836 24.69 4.9 40.7 94 4 39.2 0
17:50 1006 29.71 836 24.69 4.9 40.7 94 4 39.2 0
17:51 1006 29.71 836 24.69 4.9 40.8 95 4.1 39.3 0
17:52 1006 29.71 836 24.69 4.9 40.8 95 4.1 39.3 0
17:53 1006 29.71 836 24.69 4.9 40.8 94 4 39.2 0
17:54 1006 29.71 836 24.69 4.8 40.7 94 4 39.2 0
17:55 1006 29.71 836 24.69 4.8 40.7 94 4 39.2 0
17:56 1006 29.71 836 24.69 4.8 40.7 94 4 39.2 0
17:57 1006 29.71 836 24.69 4.8 40.6 94 3.9 39.1 0
17:58 1006 29.71 836 24.69 4.7 40.5 94 3.9 39 0
17:59 1006 29.71 836 24.69 4.8 40.6 95 3.9 39.1 0
18:00 1006 29.71 836 24.69 4.7 40.5 94 3.9 39 0
18:01 1006 29.71 836 24.69 4.7 40.5 94 3.9 39 0
18:02 1006 29.71 836 24.69 4.7 40.4 94 3.8 38.9 0
18:03 1006 29.71 836 24.69 4.7 40.5 94 3.9 39 0
18:04 1006 29.71 836 24.69 4.7 40.4 94 3.8 38.8 0
18:05 1006 29.71 836 24.69 4.7 40.4 94 3.8 38.8 0
18:06 1006 29.71 836 24.69 4.7 40.4 94 3.8 38.9 0
18:07 1006 29.71 836 24.69 4.7 40.4 94 3.8 38.9 0
18:08 1006 29.71 836 24.69 4.7 40.5 94 3.8 38.9 0
18:09 1006 29.71 836 24.69 4.7 40.4 94 3.8 38.9 0
18:10 1006 29.71 836 24.69 4.6 40.3 94 3.8 38.8 0
18:11 1006 29.71 836 24.69 4.6 40.3 94 3.7 38.7 0
18:12 1007 29.74 836 24.69 4.6 40.3 94 3.8 38.8 0
18:13 1007 29.74 836 24.69 4.6 40.4 94 3.8 38.8 0
18:14 1007 29.74 836 24.69 4.6 40.3 94 3.8 38.8 0
18:15 1007 29.74 836 24.69 4.6 40.3 94 3.8 38.8 0
18:16 1007 29.74 836 24.69 4.6 40.4 94 3.8 38.9 0
18:17 1007 29.74 836 24.69 4.6 40.3 95 3.8 38.9 0
18:18 1007 29.74 836 24.69 4.7 40.4 95 3.9 39 0
18:19 1007 29.74 836 24.69 4.7 40.4 95 3.9 39 0
18:20 1007 29.74 836 24.69 4.7 40.4 95 3.9 39 0
18:21 1007 29.74 836 24.69 4.7 40.4 95 3.9 39 0
18:22 1007 29.74 836 24.69 4.7 40.5 95 4 39.2 0
18:23 1007 29.74 836 24.69 4.7 40.5 95 4 39.2 0
18:24 1007 29.74 836 24.69 4.8 40.6 95 4 39.2 0
18:25 1007 29.74 836 24.69 4.7 40.4 95 3.9 39 0
18:26 1007 29.74 836 24.69 4.7 40.5 95 4 39.2 0
18:27 1007 29.74 836 24.69 4.7 40.5 95 4 39.2 0
18:28 1007 29.74 836 24.69 4.7 40.5 95 4 39.2 0
18:29 1007 29.74 836 24.69 4.7 40.5 95 4 39.2 0
18:30 1007 29.74 836 24.69 4.7 40.5 95 3.9 39.1 0
18:31 1007 29.74 836 24.69 4.7 40.5 95 4 39.1 0
18:32 1007 29.74 836 24.69 4.7 40.5 95 3.9 39 0
18:33 1007 29.74 836 24.69 4.7 40.5 95 4 39.1 0
18:34 1007 29.74 836 24.69 4.7 40.5 95 4 39.2 0
18:35 1007 29.74 836 24.69 4.7 40.5 95 4 39.2 0
18:36 1007 29.74 836 24.69 4.8 40.6 95 4 39.2 0
18:37 1007 29.74 836 24.69 4.8 40.6 95 4.1 39.3 0
18:38 1007 29.74 836 24.69 4.8 40.6 95 4.1 39.3 0
18:39 1007 29.74 836 24.69 4.8 40.6 94 4 39.1 0
18:40 1007 29.74 836 24.69 4.8 40.7 95 4.1 39.3 0
18:41 1007 29.74 836 24.69 4.8 40.7 95 4.1 39.4 0
18:42 1007 29.74 836 24.69 4.8 40.7 94 3.9 39.1 0
18:43 1007 29.74 836 24.69 4.8 40.6 94 3.9 39 0
18:44 1007 29.74 836 24.69 4.8 40.6 95 3.9 39.1 0
18:45 1007 29.74 836 24.69 4.7 40.5 95 3.9 39.1 0
18:46 1007 29.74 836 24.69 4.7 40.5 94 3.9 38.9 0
18:47 1007 29.74 836 24.69 4.7 40.4 94 3.9 39 0
18:48 1007 29.74 836 24.69 4.7 40.5 94 3.9 39 0
18:49 1007 29.74 836 24.69 4.7 40.5 94 3.9 39 0
18:50 1007 29.74 836 24.69 4.7 40.5 94 3.9 39 0
18:51 1007 29.74 836 24.69 4.7 40.5 94 3.8 38.9 0
18:52 1007 29.74 836 24.69 4.7 40.5 94 3.9 39 0
18:53 1007 29.74 836 24.69 4.7 40.5 94 3.9 39 0
18:54 1007 29.74 836 24.69 4.7 40.5 94 3.9 39 0
18:55 1007 29.74 836 24.69 4.7 40.5 95 3.9 39.1 0
18:56 1007 29.74 836 24.69 4.7 40.4 94 3.8 38.8 0
18:57 1007 29.74 836 24.69 4.7 40.5 94 3.8 38.9 0
18:58 1007 29.74 836 24.69 4.7 40.5 94 3.9 39 0
18:59 1007 29.74 836 24.69 4.7 40.4 94 3.8 38.9 0
19:00 1007 29.74 836 24.69 4.7 40.5 94 3.9 39 0
19:01 1007 29.74 836 24.69 4.7 40.5 94 3.9 39 0
19:02 1007 29.74 836 24.69 4.7 40.4 94 3.9 38.9 0
19:03 1007 29.74 836 24.69 4.7 40.5 94 3.8 38.9 0
19:04 1007 29.74 836 24.69 4.7 40.5 94 3.8 38.8 0
19:05 1007 29.74 836 24.69 4.7 40.5 94 3.8 38.9 0
19:06 1007 29.74 836 24.69 4.7 40.5 94 3.9 39 0
19:07 1007 29.74 836 24.69 4.7 40.5 94 3.8 38.8 0
19:08 1007 29.74 836 24.69 4.7 40.4 94 3.8 38.9 0
19:09 1007 29.74 836 24.69 4.7 40.4 94 3.8 38.8 0
19:10 1007 29.74 836 24.69 4.7 40.5 94 3.8 38.9 0
19:11 1007 29.74 836 24.69 4.7 40.5 94 3.8 38.9 0
19:12 1007 29.74 836 24.69 4.7 40.5 94 3.8 38.9 0
19:13 1007 29.74 836 24.69 4.7 40.5 94 3.9 39 0
19:14 1007 29.74 836 24.69 4.7 40.4 95 3.9 39 0
19:15 1007 29.74 836 24.69 4.7 40.5 95 3.9 39.1 0
19:16 1007 29.74 836 24.69 4.7 40.5 95 3.9 39.1 0
19:17 1007 29.74 836 24.69 4.7 40.4 94 3.8 38.9 0
19:18 1007 29.74 836 24.69 4.7 40.4 94 3.8 38.9 0
19:19 1007 29.74 836 24.69 4.7 40.4 94 3.9 38.9 0
19:20 1007 29.74 836 24.69 4.7 40.4 95 3.9 39 0
19:21 1007 29.74 836 24.69 4.7 40.5 95 3.9 39.1 0
19:22 1007 29.74 836 24.69 4.7 40.5 95 3.9 39.1 0
19:23 1007 29.74 836 24.69 4.7 40.4 95 3.9 39.1 0
19:24 1007 29.74 836 24.69 4.7 40.4 95 3.9 39 0
19:25 1007 29.74 836 24.69 4.7 40.4 95 3.9 39.1 0
19:26 1007 29.74 836 24.69 4.7 40.4 95 3.9 39 0
19:27 1007 29.74 836 24.69 4.7 40.4 95 3.9 39.1 0
19:28 1007 29.74 837 24.72 4.7 40.4 95 3.9 39 0
19:29 1007 29.74 837 24.72 4.7 40.4 95 3.9 39 0
19:30 1007 29.74 837 24.72 4.7 40.4 95 3.9 39 0
19:31 1007 29.74 837 24.72 4.6 40.3 95 3.9 39 0
19:32 1007 29.74 837 24.72 4.6 40.4 95 3.9 39 0
19:33 1007 29.74 837 24.72 4.6 40.4 95 3.9 39 0
19:34 1007 29.74 837 24.72 4.6 40.3 95 3.9 39 0
19:35 1007 29.74 837 24.72 4.6 40.4 95 3.9 39 0
19:36 1007 29.74 837 24.72 4.6 40.3 95 3.9 39 0
19:37 1007 29.74 837 24.72 4.6 40.4 95 3.9 39 0
19:38 1007 29.74 837 24.72 4.6 40.3 95 3.9 39.1 0
19:39 1007 29.74 837 24.72 4.6 40.4 95 3.9 39 0
19:40 1007 29.74 837 24.72 4.7 40.4 95 4 39.1 0
19:41 1007 29.74 837 24.72 4.7 40.4 95 4 39.2 0
19:42 1007 29.74 837 24.72 4.6 40.3 95 3.9 39.1 0
19:43 1008 29.77 837 24.72 4.7 40.4 95 4 39.2 0
19:44 1008 29.77 837 24.72 4.7 40.4 96 4 39.3 0
19:45 1008 29.77 837 24.72 4.7 40.4 95 4 39.2 0
19:46 1008 29.77 837 24.72 4.6 40.4 96 4 39.2 0
19:47 1008 29.77 837 24.72 4.7 40.4 96 4 39.3 0
19:48 1008 29.77 837 24.72 4.6 40.4 95 4 39.1 0
19:49 1008 29.77 837 24.72 4.7 40.4 96 4 39.2 0
19:50 1008 29.77 837 24.72 4.7 40.4 96 4 39.3 0
19:51 1008 29.77 837 24.72 4.7 40.4 96 4.1 39.3 0
19:52 1008 29.77 837 24.72 4.7 40.4 96 4 39.2 0
19:53 1008 29.77 837 24.72 4.6 40.4 96 4 39.2 0
19:54 1008 29.77 837 24.72 4.6 40.3 95 3.9 39 0
19:55 1008 29.77 837 24.72 4.6 40.3 95 3.9 39 0
19:56 1008 29.77 837 24.72 4.6 40.3 95 3.8 38.9 0
19:57 1008 29.77 837 24.72 4.6 40.3 95 3.9 39 0
19:58 1008 29.77 837 24.72 4.6 40.3 95 3.9 38.9 0
19:59 1008 29.77 837 24.72 4.6 40.2 95 3.9 38.9 0
20:00 1008 29.77 837 24.72 4.6 40.3 95 3.9 39.1 0
20:01 1008 29.77 837 24.72 4.6 40.3 95 3.9 39 0
20:02 1008 29.77 837 24.72 4.6 40.3 95 3.9 39 0
20:03 1008 29.77 837 24.72 4.6 40.3 95 3.9 39 0
20:04 1008 29.77 837 24.72 4.5 40.2 95 3.8 38.9 0
20:05 1008 29.77 837 24.72 4.5 40.2 95 3.8 38.9 0
20:06 1008 29.77 837 24.72 4.5 40.2 95 3.8 38.8 0
20:07 1008 29.77 837 24.72 4.5 40.1 95 3.8 38.8 0
20:08 1008 29.77 837 24.72 4.5 40.1 95 3.8 38.8 0
20:09 1008 29.77 837 24.72 4.5 40.1 95 3.8 38.8 0
20:10 1008 29.77 837 24.72 4.5 40.1 95 3.8 38.8 0
20:11 1008 29.77 837 24.72 4.5 40.1 95 3.7 38.7 0
20:12 1008 29.77 837 24.72 4.5 40 95 3.8 38.8 0
20:13 1008 29.77 837 24.72 4.5 40 95 3.7 38.7 0
20:14 1008 29.77 837 24.72 4.5 40 95 3.7 38.7 0
20:15 1008 29.77 837 24.72 4.5 40 95 3.7 38.6 0
20:16 1008 29.77 837 24.72 4.4 39.9 95 3.6 38.6 0
20:17 1008 29.77 837 24.72 4.4 40 95 3.7 38.6 0
20:18 1008 29.77 837 24.72 4.4 40 95 3.7 38.6 0
20:19 1008 29.77 837 24.72 4.4 39.9 95 3.6 38.5 0
20:20 1008 29.77 837 24.72 4.4 39.9 95 3.7 38.6 0
20:21 1008 29.77 837 24.72 4.4 39.9 95 3.6 38.5 0
20:22 1008 29.77 837 24.72 4.3 39.8 95 3.6 38.4 0
20:23 1008 29.77 837 24.72 4.3 39.8 95 3.6 38.4 0
20:24 1008 29.77 837 24.72 4.3 39.8 95 3.5 38.4 0
20:25 1008 29.77 837 24.72 4.3 39.7 94 3.4 38.2 0
20:26 1008 29.77 837 24.72 4.3 39.7 95 3.5 38.3 0
20:27 1008 29.77 837 24.72 4.2 39.6 94 3.4 38.1 0
20:28 1008 29.77 837 24.72 4.2 39.6 95 3.5 38.3 0
20:29 1008 29.77 837 24.72 4.2 39.6 95 3.5 38.3 0
20:30 1008 29.77 837 24.72 4.2 39.6 95 3.5 38.3 0
20:31 1008 29.77 837 24.72 4.2 39.6 95 3.5 38.4 0
20:32 1008 29.77 837 24.72 4.2 39.6 95 3.5 38.3 0
20:33 1008 29.77 837 24.72 4.2 39.6 95 3.5 38.3 0
20:34 1008 29.77 837 24.72 4.2 39.6 95 3.5 38.3 0
20:35 1008 29.77 837 24.72 4.2 39.6 96 3.6 38.4 0
20:36 1008 29.77 837 24.72 4.2 39.6 95 3.5 38.4 0
20:37 1008 29.77 837 24.72 4.2 39.5 95 3.5 38.3 0
20:38 1008 29.77 837 24.72 4.2 39.5 95 3.5 38.3 0
20:39 1008 29.77 838 24.75 4.2 39.5 95 3.4 38.2 0
20:40 1008 29.77 838 24.75 4.1 39.5 95 3.4 38.2 0
20:41 1008 29.77 838 24.75 4.1 39.4 95 3.4 38.1 0
20:42 1008 29.77 838 24.75 4.1 39.4 95 3.4 38.1 0
20:43 1008 29.77 838 24.75 4.1 39.4 95 3.4 38.1 0
20:44 1008 29.77 838 24.75 4.1 39.4 95 3.4 38.1 0
20:45 1008 29.77 837 24.72 4.1 39.3 95 3.4 38.1 0
20:46 1008 29.77 837 24.72 4.1 39.3 95 3.4 38.1 0
20:47 1008 29.77 837 24.72 4.1 39.3 95 3.4 38.1 0
20:48 1008 29.77 838 24.75 4.1 39.3 95 3.3 38 0
20:49 1008 29.77 838 24.75 4.1 39.3 95 3.4 38 0
20:50 1008 29.77 838 24.75 4 39.3 95 3.3 37.9 0
20:51 1008 29.77 838 24.75 4 39.3 95 3.3 37.9 0
20:52 1008 29.77 838 24.75 4 39.2 95 3.3 37.9 0
20:53 1009 29.8 838 24.75 4 39.2 95 3.3 37.9 0
20:54 1009 29.8 838 24.75 4 39.2 95 3.3 37.9 0
20:55 1009 29.8 838 24.75 4 39.2 95 3.2 37.8 0
20:56 1009 29.8 838 24.75 4 39.2 95 3.2 37.8 0
20:57 1009 29.8 838 24.75 4 39.1 95 3.2 37.8 0
20:58 1009 29.8 838 24.75 4 39.2 95 3.3 37.9 0
20:59 1009 29.8 838 24.75 4 39.1 95 3.2 37.8 0
21:00 1009 29.8 838 24.75 4 39.1 95 3.2 37.8 0
21:01 1009 29.8 838 24.75 3.9 39.1 95 3.2 37.8 0
21:02 1009 29.8 838 24.75 3.9 39 95 3.2 37.8 0
21:03 1009 29.8 838 24.75 3.9 39.1 95 3.3 37.9 0
21:04 1009 29.8 838 24.75 3.9 39.1 95 3.2 37.8 0
21:05 1009 29.8 838 24.75 3.9 39 95 3.2 37.7 0
21:06 1009 29.8 838 24.75 3.9 39 95 3.2 37.8 0
21:07 1009 29.8 838 24.75 3.9 39 95 3.2 37.7 0
21:08 1009 29.8 838 24.75 3.9 39 95 3.2 37.7 0
21:09 1008 29.77 838 24.75 3.8 38.9 95 3.2 37.7 0
21:10 1008 29.77 838 24.75 3.9 38.9 96 3.2 37.8 0
21:11 1008 29.77 838 24.75 3.9 39 96 3.2 37.8 0
21:12 1008 29.77 838 24.75 3.8 38.9 96 3.2 37.7 0
21:13 1008 29.77 838 24.75 3.8 38.9 96 3.2 37.7 0
21:14 1008 29.77 838 24.75 3.8 38.9 95 3.2 37.7 0
21:15 1008 29.77 838 24.75 3.8 38.9 96 3.2 37.7 0
21:16 1008 29.77 838 24.75 3.8 38.8 95 3.1 37.5 0
21:17 1008 29.77 838 24.75 3.7 38.7 95 3 37.5 0
21:18 1008 29.77 838 24.75 3.7 38.7 95 3.1 37.5 0
21:19 1008 29.77 838 24.75 3.7 38.7 95 3 37.4 0
21:20 1009 29.8 838 24.75 3.7 38.6 95 2.9 37.3 0
21:21 1009 29.8 838 24.75 3.6 38.5 95 2.9 37.2 0
21:22 1009 29.8 838 24.75 3.6 38.5 95 2.8 37.1 0
21:23 1009 29.8 838 24.75 3.6 38.5 95 2.8 37.1 0
21:24 1009 29.8 838 24.75 3.6 38.4 95 2.8 37 0
21:25 1009 29.8 838 24.75 3.6 38.4 95 2.8 37.1 0
21:26 1009 29.8 838 24.75 3.6 38.4 95 2.8 37 0
21:27 1009 29.8 838 24.75 3.5 38.4 94 2.7 36.9 0
21:28 1009 29.8 838 24.75 3.5 38.4 94 2.7 36.9 0
21:29 1009 29.8 838 24.75 3.5 38.4 94 2.7 36.9 0
21:30 1009 29.8 838 24.75 3.5 38.4 94 2.7 36.9 0
21:31 1009 29.8 838 24.75 3.5 38.4 95 2.8 37 0
21:32 1009 29.8 838 24.75 3.5 38.4 95 2.7 36.9 0
21:33 1009 29.8 838 24.75 3.5 38.3 95 2.7 36.9 0
21:34 1009 29.8 838 24.75 3.5 38.3 94 2.7 36.9 0
21:35 1009 29.8 838 24.75 3.5 38.3 94 2.6 36.8 0
21:36 1009 29.8 838 24.75 3.5 38.3 94 2.7 36.9 0
21:37 1009 29.8 838 24.75 3.5 38.3 95 2.7 36.9 0
21:38 1009 29.8 838 24.75 3.5 38.2 94 2.6 36.7 0
21:39 1009 29.8 838 24.75 3.5 38.3 94 2.6 36.8 0
21:40 1009 29.8 838 24.75 3.4 38.2 94 2.6 36.7 0
21:41 1009 29.8 838 24.75 3.5 38.3 94 2.7 36.8 0
21:42 1009 29.8 838 24.75 3.5 38.2 94 2.6 36.7 0
21:43 1009 29.8 838 24.75 3.4 38.2 94 2.6 36.7 0
21:44 1009 29.8 838 24.75 3.4 38.2 94 2.6 36.6 0
21:45 1009 29.8 838 24.75 3.5 38.2 94 2.6 36.7 0
21:46 1009 29.8 838 24.75 3.4 38.2 94 2.6 36.7 0
21:47 1009 29.8 838 24.75 3.5 38.2 94 2.6 36.7 0
21:48 1009 29.8 838 24.75 3.4 38.2 94 2.6 36.6 0
21:49 1009 29.8 838 24.75 3.4 38.2 94 2.6 36.7 0
21:50 1009 29.8 838 24.75 3.4 38.2 94 2.6 36.7 0
21:51 1009 29.8 838 24.75 3.5 38.2 95 2.7 36.8 0
21:52 1009 29.8 838 24.75 3.4 38.2 94 2.6 36.6 0
21:53 1009 29.8 838 24.75 3.4 38.2 94 2.6 36.7 0
21:54 1009 29.8 838 24.75 3.4 38.1 94 2.6 36.7 0
21:55 1009 29.8 838 24.75 3.4 38.2 94 2.6 36.7 0
21:56 1009 29.8 838 24.75 3.4 38.2 94 2.6 36.6 0
21:57 1009 29.8 838 24.75 3.4 38.2 94 2.6 36.7 0
21:58 1009 29.8 838 24.75 3.4 38.2 94 2.6 36.7 0
21:59 1009 29.8 838 24.75 3.4 38.1 95 2.6 36.7 0
22:00 1009 29.8 838 24.75 3.4 38.2 95 2.7 36.8 0
22:01 1009 29.8 838 24.75 3.4 38.1 95 2.6 36.7 0
22:02 1009 29.8 838 24.75 3.4 38.2 95 2.6 36.7 0
22:03 1009 29.8 838 24.75 3.4 38.1 95 2.6 36.7 0
22:04 1009 29.8 838 24.75 3.4 38.1 94 2.6 36.6 0
22:05 1009 29.8 838 24.75 3.4 38.1 94 2.5 36.5 0
22:06 1009 29.8 838 24.75 3.4 38.1 94 2.5 36.6 0
22:07 1009 29.8 838 24.75 3.4 38.1 94 2.5 36.6 0
22:08 1009 29.8 838 24.75 3.4 38.1 94 2.5 36.6 0
22:09 1009 29.8 838 24.75 3.4 38.1 94 2.5 36.6 0
22:10 1009 29.8 838 24.75 3.4 38.2 94 2.5 36.5 0
22:11 1009 29.8 838 24.75 3.4 38.1 94 2.5 36.6 0
22:12 1009 29.8 838 24.75 3.4 38.2 94 2.6 36.6 0
22:13 1009 29.8 838 24.75 3.4 38.1 94 2.5 36.5 0
22:14 1009 29.8 838 24.75 3.4 38 94 2.5 36.5 0
22:15 1009 29.8 838 24.75 3.4 38.1 94 2.5 36.5 0
22:16 1009 29.8 838 24.75 3.4 38 94 2.5 36.5 0
22:17 1009 29.8 838 24.75 3.3 38 94 2.5 36.5 0
22:18 1009 29.8 838 24.75 3.3 38 94 2.5 36.4 0
22:19 1009 29.8 838 24.75 3.3 38 94 2.4 36.4 0
22:20 1009 29.8 838 24.75 3.3 38 94 2.5 36.5 0
22:21 1009 29.8 838 24.75 3.3 38 94 2.5 36.5 0
22:22 1009 29.8 838 24.75 3.3 38 95 2.5 36.6 0
22:23 1009 29.8 838 24.75 3.3 37.9 95 2.5 36.5 0
22:24 1009 29.8 838 24.75 3.3 37.9 94 2.5 36.5 0
22:25 1009 29.8 838 24.75 3.3 37.9 95 2.5 36.5 0
22:26 1009 29.8 838 24.75 3.3 37.9 94 2.4 36.4 0
22:27 1009 29.8 838 24.75 3.2 37.8 94 2.4 36.2 0
22:28 1009 29.8 838 24.75 3.2 37.8 94 2.3 36.2 0
22:29 1009 29.8 838 24.75 3.3 37.9 94 2.4 36.3 0
22:30 1009 29.8 838 24.75 3.3 37.9 94 2.4 36.3 0
22:31 1009 29.8 838 24.75 3.3 37.9 94 2.4 36.3 0
22:32 1009 29.8 838 24.75 3.2 37.8 94 2.4 36.3 0
22:33 1009 29.8 838 24.75 3.2 37.8 94 2.4 36.3 0
22:34 1009 29.8 838 24.75 3.2 37.7 94 2.2 36 0
22:35 1009 29.8 838 24.75 3.2 37.7 94 2.3 36.1 0
22:36 1009 29.8 838 24.75 3.2 37.7 94 2.2 36 0
22:37 1009 29.8 838 24.75 3.1 37.6 93 2.2 35.9 0
22:38 1009 29.8 838 24.75 3.1 37.6 94 2.2 36 0
22:39 1009 29.8 838 24.75 3.1 37.6 94 2.2 36 0
22:40 1009 29.8 839 24.78 3.1 37.6 94 2.2 36 0
22:41 1009 29.8 839 24.78 3.1 37.5 94 2.2 36 0
22:42 1009 29.8 839 24.78 3.1 37.6 94 2.2 36 0
22:43 1009 29.8 839 24.78 3.1 37.5 94 2.2 35.9 0
22:44 1009 29.8 839 24.78 3 37.5 94 2.2 35.9 0
22:45 1009 29.8 839 24.78 3.1 37.5 94 2.3 36.1 0
22:46 1009 29.8 839 24.78 3 37.5 95 2.2 36 0
22:47 1009 29.8 839 24.78 3 37.5 95 2.2 36 0
22:48 1009 29.8 839 24.78 3 37.5 95 2.3 36.1 0
22:49 1009 29.8 839 24.78 3 37.4 95 2.2 36 0
22:50 1009 29.8 839 24.78 3 37.4 95 2.3 36.1 0
22:51 1009 29.8 839 24.78 3 37.4 95 2.2 36 0
22:52 1009 29.8 839 24.78 3 37.5 95 2.3 36.1 0
22:53 1009 29.8 839 24.78 3 37.5 95 2.3 36.1 0
22:54 1009 29.8 839 24.78 3 37.5 95 2.3 36.1 0
22:55 1009 29.8 839 24.78 3 37.4 95 2.3 36.1 0
22:56 1009 29.8 839 24.78 3 37.5 95 2.3 36.1 0
22:57 1009 29.8 839 24.78 3.1 37.5 95 2.3 36.1 0
22:58 1009 29.8 839 24.78 3.1 37.5 95 2.3 36.2 0
22:59 1009 29.8 839 24.78 3.1 37.6 95 2.3 36.2 0
23:00 1009 29.8 839 24.78 3.1 37.5 95 2.3 36.1 0
23:01 1009 29.8 839 24.78 3.1 37.5 95 2.3 36.1 0
23:02 1009 29.8 839 24.78 3.1 37.5 95 2.3 36.2 0
23:03 1010 29.83 839 24.78 3.1 37.6 95 2.3 36.2 0
23:04 1009 29.8 839 24.78 3.1 37.6 95 2.4 36.3 0
23:05 1009 29.8 839 24.78 3.1 37.6 95 2.4 36.3 0
23:06 1010 29.83 839 24.78 3.1 37.5 95 2.3 36.1 0
23:07 1010 29.83 839 24.78 3.1 37.6 94 2.3 36.1 0
23:08 1010 29.83 839 24.78 3.1 37.6 94 2.2 36 0
23:09 1010 29.83 839 24.78 3.1 37.6 94 2.3 36.1 0
23:10 1010 29.83 839 24.78 3.1 37.6 94 2.3 36.2 0
23:11 1010 29.83 839 24.78 3.1 37.6 94 2.2 36 0
23:12 1010 29.83 839 24.78 3.1 37.7 94 2.3 36.1 0
23:13 1010 29.83 839 24.78 3.1 37.7 94 2.3 36.1 0
23:14 1010 29.83 839 24.78 3.1 37.6 94 2.3 36.1 0
23:15 1010 29.83 839 24.78 3.1 37.6 94 2.2 36 0
23:16 1010 29.83 839 24.78 3.1 37.6 94 2.2 36 0
23:17 1010 29.83 839 24.78 3.1 37.6 93 2.1 35.8 0
23:18 1010 29.83 839 24.78 3.1 37.7 93 2.1 35.9 0
23:19 1010 29.83 839 24.78 3.1 37.7 93 2.1 35.8 0
23:20 1010 29.83 839 24.78 3.1 37.7 93 2.1 35.7 0
23:21 1010 29.83 839 24.78 3.1 37.6 93 2.1 35.8 0
23:22 1010 29.83 839 24.78 3.1 37.6 93 2.1 35.9 0
23:23 1010 29.83 839 24.78 3.1 37.7 93 2.2 35.9 0
23:24 1010 29.83 839 24.78 3.1 37.7 93 2.2 35.9 0
23:25 1010 29.83 839 24.78 3.1 37.6 94 2.2 35.9 0
23:26 1010 29.83 839 24.78 3.1 37.6 93 2.2 35.9 0
23:27 1010 29.83 839 24.78 3.1 37.6 94 2.2 35.9 0
23:28 1010 29.83 839 24.78 3.1 37.7 94 2.2 36 0
23:29 1010 29.83 839 24.78 3.1 37.7 94 2.2 36 0
23:30 1010 29.83 839 24.78 3.1 37.6 93 2.2 35.9 0
23:31 1010 29.83 839 24.78 3.1 37.7 94 2.2 36 0
23:32 1010 29.83 839 24.78 3.1 37.6 94 2.3 36.1 0
23:33 1010 29.83 839 24.78 3.1 37.6 94 2.2 35.9 0
23:34 1010 29.83 839 24.78 3.1 37.6 94 2.2 36 0
23:35 1010 29.83 839 24.78 3.1 37.7 94 2.3 36.1 0
23:36 1010 29.83 839 24.78 3.1 37.6 94 2.3 36.1 0
23:37 1010 29.83 839 24.78 3.1 37.6 94 2.2 36 0
23:38 1010 29.83 839 24.78 3.1 37.6 94 2.2 36 0
23:39 1010 29.83 839 24.78 3.1 37.6 94 2.2 36 0
23:40 1010 29.83 839 24.78 3.1 37.6 94 2.2 36 0
23:41 1010 29.83 839 24.78 3.1 37.6 94 2.2 36 0
23:42 1010 29.83 839 24.78 3.1 37.6 94 2.2 36 0
23:43 1010 29.83 839 24.78 3.1 37.6 94 2.2 35.9 0
23:44 1010 29.83 839 24.78 3.1 37.6 94 2.2 36 0
23:45 1010 29.83 839 24.78 3.1 37.6 94 2.2 36 0
23:46 1010 29.83 839 24.78 3.1 37.6 94 2.2 36 0
23:47 1010 29.83 839 24.78 3.1 37.6 94 2.2 36 0
23:48 1010 29.83 839 24.78 3.1 37.6 94 2.3 36.1 0
23:49 1010 29.83 839 24.78 3.1 37.6 94 2.2 36 0
23:50 1010 29.83 839 24.78 3.1 37.6 94 2.2 36 0
23:51 1010 29.83 839 24.78 3.1 37.6 94 2.2 36 0
23:52 1010 29.83 839 24.78 3.1 37.6 94 2.2 36 0
23:53 1010 29.83 839 24.78 3.1 37.6 94 2.2 36 0
23:54 1010 29.83 839 24.78 3.1 37.6 94 2.3 36.1 0
23:55 1010 29.83 839 24.78 3.1 37.6 94 2.2 35.9 0
23:56 1010 29.83 839 24.78 3.1 37.6 94 2.2 36 0
23:57 1010 29.83 839 24.78 3.1 37.6 94 2.2 36 0
23:58 1010 29.83 839 24.78 3.1 37.6 94 2.2 36 0
23:59 1010 29.83 839 24.78 3.1 37.6 94 2.2 36 0
24:00 1010 29.83 839 24.78 3.1 37.7 94 2.2 36 0